<?xml version='1.0' encoding='UTF-8' standalone='yes' ?>
<gpx xmlns="http://www.topografix.com/GPX/1/1" xmlns:geotracker="http://ilyabogdanovich.com/gpx/extensions/geotracker" xmlns:xsi="http://www.w3.org/2001/XMLSchema-instance" xsi:schemaLocation="http://www.topografix.com/GPX/1/1 http://www.topografix.com/GPX/1/1/gpx.xsd" version="1.1" creator="Enregistré par Geo Tracker pour Android de Ilya Bogdanovich">
  <metadata>
    <name>Nouan-le-fuzelier-25-11-23</name>
    <author>
      <name>Enregistré par Geo Tracker pour Android de Ilya Bogdanovich</name>
      <link href="https://play.google.com/store/apps/details?id=com.ilyabogdanovich.geotracker" />
    </author>
    <link href="https://play.google.com/store/apps/details?id=com.ilyabogdanovich.geotracker" />
    <time>2025-11-23T09:00:25Z</time>
  </metadata>
  <wpt lat="47.53833853" lon="2.03651933">
    <ele>206.48</ele>
    <time>2025-11-23T09:03:15Z</time>
    <name>Arrêt de ~3 min</name>
    <desc>Altitude: 206 m
Durée depuis le départ: 00:02:49
Distance depuis le départ: 0 m</desc>
    <extensions>
      <geotracker:meta visited="1" />
    </extensions>
  </wpt>
  <wpt lat="47.52159728" lon="2.06076182">
    <ele>163.3</ele>
    <time>2025-11-23T10:21:40Z</time>
    <name>Arrêt de ~3 min</name>
    <desc>Altitude: 163 m
Durée depuis le départ: 01:21:14
Distance depuis le départ: 5,24 km</desc>
    <extensions>
      <geotracker:meta visited="1" />
    </extensions>
  </wpt>
  <trk>
    <name>Nouan-le-fuzelier-25-11-23</name>
    <src>Enregistré par Geo Tracker pour Android de Ilya Bogdanovich</src>
    <link href="https://play.google.com/store/apps/details?id=com.ilyabogdanovich.geotracker" />
    <extensions>
      <geotracker:meta>
        <geotracker:length>8245.91</geotracker:length>
        <geotracker:duration>7451384</geotracker:duration>
        <geotracker:creationtime>2025-11-23T09:00:25Z</geotracker:creationtime>
        <geotracker:activity>0</geotracker:activity>
      </geotracker:meta>
    </extensions>
    <trkseg>
      <trkpt lat="47.53834361" lon="2.03646968">
        <ele>227.18</ele>
        <time>2025-11-23T09:00:30Z</time>
      </trkpt>
      <trkpt lat="47.53833853" lon="2.03651933">
        <ele>206.48</ele>
        <time>2025-11-23T09:03:15Z</time>
      </trkpt>
      <trkpt lat="47.53823089" lon="2.03652069">
        <ele>194.67</ele>
        <time>2025-11-23T09:04:26Z</time>
      </trkpt>
      <trkpt lat="47.53814949" lon="2.03644052">
        <ele>190.74</ele>
        <time>2025-11-23T09:04:34Z</time>
      </trkpt>
      <trkpt lat="47.5380589" lon="2.0364804">
        <ele>185.29</ele>
        <time>2025-11-23T09:04:41Z</time>
      </trkpt>
      <trkpt lat="47.5379722" lon="2.03652335">
        <ele>183.44</ele>
        <time>2025-11-23T09:04:48Z</time>
      </trkpt>
      <trkpt lat="47.53792525" lon="2.03663941">
        <ele>179.8</ele>
        <time>2025-11-23T09:04:57Z</time>
      </trkpt>
      <trkpt lat="47.5379289" lon="2.03677615">
        <ele>177.88</ele>
        <time>2025-11-23T09:05:05Z</time>
      </trkpt>
      <trkpt lat="47.53793869" lon="2.03691575">
        <ele>173.18</ele>
        <time>2025-11-23T09:05:14Z</time>
      </trkpt>
      <trkpt lat="47.53794647" lon="2.03705108">
        <ele>169.47</ele>
        <time>2025-11-23T09:05:23Z</time>
      </trkpt>
      <trkpt lat="47.53795345" lon="2.03718991">
        <ele>166.53</ele>
        <time>2025-11-23T09:05:32Z</time>
      </trkpt>
      <trkpt lat="47.53794569" lon="2.03732733">
        <ele>162</ele>
        <time>2025-11-23T09:05:43Z</time>
      </trkpt>
      <trkpt lat="47.53786567" lon="2.03741541">
        <ele>161.18</ele>
        <time>2025-11-23T09:05:52Z</time>
      </trkpt>
      <trkpt lat="47.53777889" lon="2.0374813">
        <ele>160.2</ele>
        <time>2025-11-23T09:06:00Z</time>
      </trkpt>
      <trkpt lat="47.53768953" lon="2.03752085">
        <ele>159.27</ele>
        <time>2025-11-23T09:06:08Z</time>
      </trkpt>
      <trkpt lat="47.53759748" lon="2.03756643">
        <ele>159.31</ele>
        <time>2025-11-23T09:06:16Z</time>
      </trkpt>
      <trkpt lat="47.53750798" lon="2.03758265">
        <ele>159.16</ele>
        <time>2025-11-23T09:06:24Z</time>
      </trkpt>
      <trkpt lat="47.5374164" lon="2.03761983">
        <ele>159.18</ele>
        <time>2025-11-23T09:06:32Z</time>
      </trkpt>
      <trkpt lat="47.53732344" lon="2.03764855">
        <ele>159.97</ele>
        <time>2025-11-23T09:06:40Z</time>
      </trkpt>
      <trkpt lat="47.53722743" lon="2.03767708">
        <ele>159.46</ele>
        <time>2025-11-23T09:06:49Z</time>
      </trkpt>
      <trkpt lat="47.53714271" lon="2.03772271">
        <ele>157.18</ele>
        <time>2025-11-23T09:06:58Z</time>
      </trkpt>
      <trkpt lat="47.53705141" lon="2.03773202">
        <ele>160.26</ele>
        <time>2025-11-23T09:07:07Z</time>
      </trkpt>
      <trkpt lat="47.5369641" lon="2.03777109">
        <ele>159.73</ele>
        <time>2025-11-23T09:07:15Z</time>
      </trkpt>
      <trkpt lat="47.5368776" lon="2.03781267">
        <ele>158.86</ele>
        <time>2025-11-23T09:07:23Z</time>
      </trkpt>
      <trkpt lat="47.53677411" lon="2.03784321">
        <ele>155.16</ele>
        <time>2025-11-23T09:07:33Z</time>
      </trkpt>
      <trkpt lat="47.53668553" lon="2.03787266">
        <ele>154.49</ele>
        <time>2025-11-23T09:07:40Z</time>
      </trkpt>
      <trkpt lat="47.53658816" lon="2.03790266">
        <ele>156.7</ele>
        <time>2025-11-23T09:07:48Z</time>
      </trkpt>
      <trkpt lat="47.53649427" lon="2.03792937">
        <ele>157.95</ele>
        <time>2025-11-23T09:07:57Z</time>
      </trkpt>
      <trkpt lat="47.53645016" lon="2.03781053">
        <ele>163.34</ele>
        <time>2025-11-23T09:08:05Z</time>
      </trkpt>
      <trkpt lat="47.53642582" lon="2.03766928">
        <ele>167.96</ele>
        <time>2025-11-23T09:08:14Z</time>
      </trkpt>
      <trkpt lat="47.53641666" lon="2.03752176">
        <ele>175.81</ele>
        <time>2025-11-23T09:08:22Z</time>
      </trkpt>
      <trkpt lat="47.53633839" lon="2.0374518">
        <ele>168.92</ele>
        <time>2025-11-23T09:08:29Z</time>
      </trkpt>
      <trkpt lat="47.53624697" lon="2.03744081">
        <ele>166.66</ele>
        <time>2025-11-23T09:08:35Z</time>
      </trkpt>
      <trkpt lat="47.53615646" lon="2.03746578">
        <ele>163.97</ele>
        <time>2025-11-23T09:08:42Z</time>
      </trkpt>
      <trkpt lat="47.53606088" lon="2.03750692">
        <ele>163.16</ele>
        <time>2025-11-23T09:08:50Z</time>
      </trkpt>
      <trkpt lat="47.53596751" lon="2.03754976">
        <ele>164.49</ele>
        <time>2025-11-23T09:08:58Z</time>
      </trkpt>
      <trkpt lat="47.53587867" lon="2.03761833">
        <ele>158.06</ele>
        <time>2025-11-23T09:09:06Z</time>
      </trkpt>
      <trkpt lat="47.53578933" lon="2.03768245">
        <ele>160.07</ele>
        <time>2025-11-23T09:09:14Z</time>
      </trkpt>
      <trkpt lat="47.53570229" lon="2.03772733">
        <ele>164.94</ele>
        <time>2025-11-23T09:09:22Z</time>
      </trkpt>
      <trkpt lat="47.53561676" lon="2.0378064">
        <ele>164.96</ele>
        <time>2025-11-23T09:09:30Z</time>
      </trkpt>
      <trkpt lat="47.53552242" lon="2.03787326">
        <ele>167.11</ele>
        <time>2025-11-23T09:09:39Z</time>
      </trkpt>
      <trkpt lat="47.53543191" lon="2.03791169">
        <ele>165.1</ele>
        <time>2025-11-23T09:09:47Z</time>
      </trkpt>
      <trkpt lat="47.53534513" lon="2.03796841">
        <ele>165.46</ele>
        <time>2025-11-23T09:09:56Z</time>
      </trkpt>
      <trkpt lat="47.53525128" lon="2.03802657">
        <ele>166.78</ele>
        <time>2025-11-23T09:10:04Z</time>
      </trkpt>
      <trkpt lat="47.53515658" lon="2.03807238">
        <ele>165.37</ele>
        <time>2025-11-23T09:10:12Z</time>
      </trkpt>
      <trkpt lat="47.53506164" lon="2.03811606">
        <ele>164.83</ele>
        <time>2025-11-23T09:10:20Z</time>
      </trkpt>
      <trkpt lat="47.5349729" lon="2.03816845">
        <ele>163.38</ele>
        <time>2025-11-23T09:10:28Z</time>
      </trkpt>
      <trkpt lat="47.5348884" lon="2.0382222">
        <ele>162.75</ele>
        <time>2025-11-23T09:10:36Z</time>
      </trkpt>
      <trkpt lat="47.53481422" lon="2.03830347">
        <ele>162.62</ele>
        <time>2025-11-23T09:10:44Z</time>
      </trkpt>
      <trkpt lat="47.53474611" lon="2.03839736">
        <ele>162.7</ele>
        <time>2025-11-23T09:10:52Z</time>
      </trkpt>
      <trkpt lat="47.53468823" lon="2.03851305">
        <ele>159.18</ele>
        <time>2025-11-23T09:11:01Z</time>
      </trkpt>
      <trkpt lat="47.53463192" lon="2.0386227">
        <ele>161.56</ele>
        <time>2025-11-23T09:11:09Z</time>
      </trkpt>
      <trkpt lat="47.53459162" lon="2.03874202">
        <ele>165.11</ele>
        <time>2025-11-23T09:11:17Z</time>
      </trkpt>
      <trkpt lat="47.53454814" lon="2.03886865">
        <ele>162.6</ele>
        <time>2025-11-23T09:11:26Z</time>
      </trkpt>
      <trkpt lat="47.53449821" lon="2.03899275">
        <ele>161.32</ele>
        <time>2025-11-23T09:11:35Z</time>
      </trkpt>
      <trkpt lat="47.53444191" lon="2.03910447">
        <ele>163.71</ele>
        <time>2025-11-23T09:11:45Z</time>
      </trkpt>
      <trkpt lat="47.53440236" lon="2.03923302">
        <ele>162.93</ele>
        <time>2025-11-23T09:11:54Z</time>
      </trkpt>
      <trkpt lat="47.5343528" lon="2.0393538">
        <ele>165.22</ele>
        <time>2025-11-23T09:12:03Z</time>
      </trkpt>
      <trkpt lat="47.53428615" lon="2.03945296">
        <ele>166.17</ele>
        <time>2025-11-23T09:12:10Z</time>
      </trkpt>
      <trkpt lat="47.53423114" lon="2.03957397">
        <ele>166.57</ele>
        <time>2025-11-23T09:12:18Z</time>
      </trkpt>
      <trkpt lat="47.53419555" lon="2.03969878">
        <ele>165.8</ele>
        <time>2025-11-23T09:12:26Z</time>
      </trkpt>
      <trkpt lat="47.53415009" lon="2.03981389">
        <ele>166.46</ele>
        <time>2025-11-23T09:12:35Z</time>
      </trkpt>
      <trkpt lat="47.53410788" lon="2.03993876">
        <ele>165.41</ele>
        <time>2025-11-23T09:12:42Z</time>
      </trkpt>
      <trkpt lat="47.53405195" lon="2.0400634">
        <ele>163.59</ele>
        <time>2025-11-23T09:12:50Z</time>
      </trkpt>
      <trkpt lat="47.53399309" lon="2.04018161">
        <ele>160.33</ele>
        <time>2025-11-23T09:12:59Z</time>
      </trkpt>
      <trkpt lat="47.53395319" lon="2.04030665">
        <ele>160.8</ele>
        <time>2025-11-23T09:13:07Z</time>
      </trkpt>
      <trkpt lat="47.53390323" lon="2.04042778">
        <ele>167.52</ele>
        <time>2025-11-23T09:13:15Z</time>
      </trkpt>
      <trkpt lat="47.53383704" lon="2.0405372">
        <ele>164.99</ele>
        <time>2025-11-23T09:13:23Z</time>
      </trkpt>
      <trkpt lat="47.53378427" lon="2.04065173">
        <ele>165.98</ele>
        <time>2025-11-23T09:13:31Z</time>
      </trkpt>
      <trkpt lat="47.53374097" lon="2.04077431">
        <ele>165.8</ele>
        <time>2025-11-23T09:13:38Z</time>
      </trkpt>
      <trkpt lat="47.5336898" lon="2.04089248">
        <ele>165.41</ele>
        <time>2025-11-23T09:13:45Z</time>
      </trkpt>
      <trkpt lat="47.53360972" lon="2.04097469">
        <ele>166.66</ele>
        <time>2025-11-23T09:13:53Z</time>
      </trkpt>
      <trkpt lat="47.53357075" lon="2.04110335">
        <ele>168.94</ele>
        <time>2025-11-23T09:14:01Z</time>
      </trkpt>
      <trkpt lat="47.53351946" lon="2.04122585">
        <ele>164.26</ele>
        <time>2025-11-23T09:14:09Z</time>
      </trkpt>
      <trkpt lat="47.53348065" lon="2.04135701">
        <ele>164.03</ele>
        <time>2025-11-23T09:14:18Z</time>
      </trkpt>
      <trkpt lat="47.53342573" lon="2.04147665">
        <ele>164.24</ele>
        <time>2025-11-23T09:14:26Z</time>
      </trkpt>
      <trkpt lat="47.53337439" lon="2.04159347">
        <ele>163.25</ele>
        <time>2025-11-23T09:14:34Z</time>
      </trkpt>
      <trkpt lat="47.53332325" lon="2.04171376">
        <ele>166.43</ele>
        <time>2025-11-23T09:14:45Z</time>
      </trkpt>
      <trkpt lat="47.53328477" lon="2.04184478">
        <ele>163.47</ele>
        <time>2025-11-23T09:14:53Z</time>
      </trkpt>
      <trkpt lat="47.53323055" lon="2.04197025">
        <ele>162.38</ele>
        <time>2025-11-23T09:15:01Z</time>
      </trkpt>
      <trkpt lat="47.53317084" lon="2.04208907">
        <ele>162.77</ele>
        <time>2025-11-23T09:15:09Z</time>
      </trkpt>
      <trkpt lat="47.53312249" lon="2.04220283">
        <ele>163.65</ele>
        <time>2025-11-23T09:15:17Z</time>
      </trkpt>
      <trkpt lat="47.53307386" lon="2.04231762">
        <ele>164.22</ele>
        <time>2025-11-23T09:15:25Z</time>
      </trkpt>
      <trkpt lat="47.53302642" lon="2.0424368">
        <ele>164.61</ele>
        <time>2025-11-23T09:15:33Z</time>
      </trkpt>
      <trkpt lat="47.53297267" lon="2.04255335">
        <ele>164.62</ele>
        <time>2025-11-23T09:15:41Z</time>
      </trkpt>
      <trkpt lat="47.53291909" lon="2.04266009">
        <ele>164.45</ele>
        <time>2025-11-23T09:15:48Z</time>
      </trkpt>
      <trkpt lat="47.53285883" lon="2.04277955">
        <ele>164.33</ele>
        <time>2025-11-23T09:15:56Z</time>
      </trkpt>
      <trkpt lat="47.53279193" lon="2.04288998">
        <ele>167.61</ele>
        <time>2025-11-23T09:16:04Z</time>
      </trkpt>
      <trkpt lat="47.53273275" lon="2.04300144">
        <ele>168.63</ele>
        <time>2025-11-23T09:16:12Z</time>
      </trkpt>
      <trkpt lat="47.53268906" lon="2.04313634">
        <ele>167.61</ele>
        <time>2025-11-23T09:16:21Z</time>
      </trkpt>
      <trkpt lat="47.53266305" lon="2.04326779">
        <ele>168.48</ele>
        <time>2025-11-23T09:16:30Z</time>
      </trkpt>
      <trkpt lat="47.53260509" lon="2.04337649">
        <ele>167.96</ele>
        <time>2025-11-23T09:16:38Z</time>
      </trkpt>
      <trkpt lat="47.5325553" lon="2.04350682">
        <ele>165.46</ele>
        <time>2025-11-23T09:16:48Z</time>
      </trkpt>
      <trkpt lat="47.53249971" lon="2.04362528">
        <ele>164.16</ele>
        <time>2025-11-23T09:16:56Z</time>
      </trkpt>
      <trkpt lat="47.532443" lon="2.04375064">
        <ele>164.01</ele>
        <time>2025-11-23T09:17:04Z</time>
      </trkpt>
      <trkpt lat="47.53239095" lon="2.04387056">
        <ele>163.77</ele>
        <time>2025-11-23T09:17:11Z</time>
      </trkpt>
      <trkpt lat="47.53233567" lon="2.04397627">
        <ele>163.95</ele>
        <time>2025-11-23T09:17:19Z</time>
      </trkpt>
      <trkpt lat="47.5322811" lon="2.04409079">
        <ele>164.58</ele>
        <time>2025-11-23T09:17:27Z</time>
      </trkpt>
      <trkpt lat="47.53224098" lon="2.04422886">
        <ele>163.19</ele>
        <time>2025-11-23T09:17:35Z</time>
      </trkpt>
      <trkpt lat="47.53218433" lon="2.0443451">
        <ele>161.63</ele>
        <time>2025-11-23T09:17:43Z</time>
      </trkpt>
      <trkpt lat="47.53212836" lon="2.04446481">
        <ele>162.59</ele>
        <time>2025-11-23T09:17:52Z</time>
      </trkpt>
      <trkpt lat="47.53208474" lon="2.04460098">
        <ele>162.33</ele>
        <time>2025-11-23T09:18:01Z</time>
      </trkpt>
      <trkpt lat="47.53202772" lon="2.04471967">
        <ele>162.72</ele>
        <time>2025-11-23T09:18:10Z</time>
      </trkpt>
      <trkpt lat="47.53197315" lon="2.04484527">
        <ele>162.35</ele>
        <time>2025-11-23T09:18:19Z</time>
      </trkpt>
      <trkpt lat="47.53192319" lon="2.04496421">
        <ele>163.65</ele>
        <time>2025-11-23T09:18:27Z</time>
      </trkpt>
      <trkpt lat="47.53187294" lon="2.04509184">
        <ele>164.04</ele>
        <time>2025-11-23T09:18:36Z</time>
      </trkpt>
      <trkpt lat="47.53182397" lon="2.04520461">
        <ele>165.13</ele>
        <time>2025-11-23T09:18:44Z</time>
      </trkpt>
      <trkpt lat="47.53177242" lon="2.04533663">
        <ele>165.41</ele>
        <time>2025-11-23T09:18:54Z</time>
      </trkpt>
      <trkpt lat="47.53171764" lon="2.04545">
        <ele>165.3</ele>
        <time>2025-11-23T09:19:02Z</time>
      </trkpt>
      <trkpt lat="47.53166068" lon="2.04556719">
        <ele>165.56</ele>
        <time>2025-11-23T09:19:10Z</time>
      </trkpt>
      <trkpt lat="47.53163654" lon="2.04569685">
        <ele>166.74</ele>
        <time>2025-11-23T09:19:18Z</time>
      </trkpt>
      <trkpt lat="47.53157385" lon="2.04579635">
        <ele>166.96</ele>
        <time>2025-11-23T09:19:26Z</time>
      </trkpt>
      <trkpt lat="47.53151483" lon="2.04591441">
        <ele>165.64</ele>
        <time>2025-11-23T09:19:35Z</time>
      </trkpt>
      <trkpt lat="47.53147652" lon="2.04604611">
        <ele>164.38</ele>
        <time>2025-11-23T09:19:43Z</time>
      </trkpt>
      <trkpt lat="47.53142698" lon="2.04615709">
        <ele>163.75</ele>
        <time>2025-11-23T09:19:51Z</time>
      </trkpt>
      <trkpt lat="47.53136861" lon="2.04626787">
        <ele>166.23</ele>
        <time>2025-11-23T09:19:59Z</time>
      </trkpt>
      <trkpt lat="47.53130424" lon="2.04637064">
        <ele>166.87</ele>
        <time>2025-11-23T09:20:06Z</time>
      </trkpt>
      <trkpt lat="47.5312593" lon="2.04648766">
        <ele>166.24</ele>
        <time>2025-11-23T09:20:14Z</time>
      </trkpt>
      <trkpt lat="47.53120606" lon="2.04660543">
        <ele>166.78</ele>
        <time>2025-11-23T09:20:22Z</time>
      </trkpt>
      <trkpt lat="47.5311634" lon="2.04673723">
        <ele>166.15</ele>
        <time>2025-11-23T09:20:30Z</time>
      </trkpt>
      <trkpt lat="47.53112205" lon="2.04685851">
        <ele>166.69</ele>
        <time>2025-11-23T09:20:38Z</time>
      </trkpt>
      <trkpt lat="47.53107088" lon="2.04697342">
        <ele>167.1</ele>
        <time>2025-11-23T09:20:46Z</time>
      </trkpt>
      <trkpt lat="47.53101592" lon="2.0470955">
        <ele>167.16</ele>
        <time>2025-11-23T09:20:54Z</time>
      </trkpt>
      <trkpt lat="47.53096201" lon="2.04721855">
        <ele>167.13</ele>
        <time>2025-11-23T09:21:02Z</time>
      </trkpt>
      <trkpt lat="47.53092009" lon="2.04735411">
        <ele>166.61</ele>
        <time>2025-11-23T09:21:10Z</time>
      </trkpt>
      <trkpt lat="47.53086065" lon="2.04746847">
        <ele>166.24</ele>
        <time>2025-11-23T09:21:18Z</time>
      </trkpt>
      <trkpt lat="47.53080771" lon="2.04758995">
        <ele>166.13</ele>
        <time>2025-11-23T09:21:26Z</time>
      </trkpt>
      <trkpt lat="47.53075678" lon="2.04771211">
        <ele>165.59</ele>
        <time>2025-11-23T09:21:34Z</time>
      </trkpt>
      <trkpt lat="47.53070637" lon="2.04783014">
        <ele>164.54</ele>
        <time>2025-11-23T09:21:42Z</time>
      </trkpt>
      <trkpt lat="47.5306524" lon="2.04794813">
        <ele>164.16</ele>
        <time>2025-11-23T09:21:50Z</time>
      </trkpt>
      <trkpt lat="47.53059874" lon="2.04805768">
        <ele>164.97</ele>
        <time>2025-11-23T09:21:57Z</time>
      </trkpt>
      <trkpt lat="47.53054627" lon="2.04817234">
        <ele>164.77</ele>
        <time>2025-11-23T09:22:04Z</time>
      </trkpt>
      <trkpt lat="47.53049264" lon="2.04828798">
        <ele>163.94</ele>
        <time>2025-11-23T09:22:12Z</time>
      </trkpt>
      <trkpt lat="47.53044469" lon="2.04841264">
        <ele>164.25</ele>
        <time>2025-11-23T09:22:20Z</time>
      </trkpt>
      <trkpt lat="47.53039246" lon="2.0485208">
        <ele>164.48</ele>
        <time>2025-11-23T09:22:28Z</time>
      </trkpt>
      <trkpt lat="47.53032188" lon="2.0486246">
        <ele>164.91</ele>
        <time>2025-11-23T09:22:36Z</time>
      </trkpt>
      <trkpt lat="47.53026541" lon="2.04874272">
        <ele>165.87</ele>
        <time>2025-11-23T09:22:49Z</time>
      </trkpt>
      <trkpt lat="47.53020735" lon="2.04886106">
        <ele>167.46</ele>
        <time>2025-11-23T09:22:57Z</time>
      </trkpt>
      <trkpt lat="47.53015813" lon="2.04897462">
        <ele>168.52</ele>
        <time>2025-11-23T09:23:04Z</time>
      </trkpt>
      <trkpt lat="47.53010339" lon="2.04909866">
        <ele>165.99</ele>
        <time>2025-11-23T09:23:12Z</time>
      </trkpt>
      <trkpt lat="47.53006212" lon="2.04922743">
        <ele>166.69</ele>
        <time>2025-11-23T09:23:21Z</time>
      </trkpt>
      <trkpt lat="47.53002829" lon="2.04936027">
        <ele>167.55</ele>
        <time>2025-11-23T09:23:29Z</time>
      </trkpt>
      <trkpt lat="47.52998919" lon="2.04948356">
        <ele>166.3</ele>
        <time>2025-11-23T09:23:37Z</time>
      </trkpt>
      <trkpt lat="47.5299375" lon="2.04959896">
        <ele>167.15</ele>
        <time>2025-11-23T09:23:45Z</time>
      </trkpt>
      <trkpt lat="47.52989137" lon="2.04972281">
        <ele>165.84</ele>
        <time>2025-11-23T09:23:53Z</time>
      </trkpt>
      <trkpt lat="47.52985072" lon="2.04985112">
        <ele>166.36</ele>
        <time>2025-11-23T09:24:01Z</time>
      </trkpt>
      <trkpt lat="47.52980697" lon="2.04997281">
        <ele>167.1</ele>
        <time>2025-11-23T09:24:08Z</time>
      </trkpt>
      <trkpt lat="47.52975607" lon="2.05008532">
        <ele>162.6</ele>
        <time>2025-11-23T09:24:16Z</time>
      </trkpt>
      <trkpt lat="47.52971493" lon="2.05021759">
        <ele>167.07</ele>
        <time>2025-11-23T09:24:25Z</time>
      </trkpt>
      <trkpt lat="47.52965797" lon="2.05033504">
        <ele>168.53</ele>
        <time>2025-11-23T09:24:32Z</time>
      </trkpt>
      <trkpt lat="47.52960107" lon="2.05045897">
        <ele>168.78</ele>
        <time>2025-11-23T09:24:40Z</time>
      </trkpt>
      <trkpt lat="47.52954153" lon="2.05056781">
        <ele>168.52</ele>
        <time>2025-11-23T09:24:48Z</time>
      </trkpt>
      <trkpt lat="47.5295009" lon="2.05070446">
        <ele>169.61</ele>
        <time>2025-11-23T09:24:56Z</time>
      </trkpt>
      <trkpt lat="47.52944163" lon="2.05081343">
        <ele>169.95</ele>
        <time>2025-11-23T09:25:04Z</time>
      </trkpt>
      <trkpt lat="47.52938768" lon="2.0509294">
        <ele>168.83</ele>
        <time>2025-11-23T09:25:12Z</time>
      </trkpt>
      <trkpt lat="47.52933419" lon="2.05104668">
        <ele>167.49</ele>
        <time>2025-11-23T09:25:20Z</time>
      </trkpt>
      <trkpt lat="47.52928951" lon="2.05117132">
        <ele>167.7</ele>
        <time>2025-11-23T09:25:28Z</time>
      </trkpt>
      <trkpt lat="47.52924418" lon="2.05128802">
        <ele>167.67</ele>
        <time>2025-11-23T09:25:35Z</time>
      </trkpt>
      <trkpt lat="47.52919522" lon="2.05142081">
        <ele>169.24</ele>
        <time>2025-11-23T09:25:43Z</time>
      </trkpt>
      <trkpt lat="47.52914745" lon="2.0515542">
        <ele>168.89</ele>
        <time>2025-11-23T09:25:51Z</time>
      </trkpt>
      <trkpt lat="47.52910442" lon="2.05167449">
        <ele>168.64</ele>
        <time>2025-11-23T09:25:58Z</time>
      </trkpt>
      <trkpt lat="47.52904866" lon="2.05182206">
        <ele>169.88</ele>
        <time>2025-11-23T09:26:07Z</time>
      </trkpt>
      <trkpt lat="47.52899869" lon="2.0519475">
        <ele>166.4</ele>
        <time>2025-11-23T09:26:16Z</time>
      </trkpt>
      <trkpt lat="47.52895191" lon="2.05206204">
        <ele>169.71</ele>
        <time>2025-11-23T09:26:23Z</time>
      </trkpt>
      <trkpt lat="47.52890743" lon="2.0521958">
        <ele>169.73</ele>
        <time>2025-11-23T09:26:31Z</time>
      </trkpt>
      <trkpt lat="47.5288581" lon="2.05231232">
        <ele>170.7</ele>
        <time>2025-11-23T09:26:39Z</time>
      </trkpt>
      <trkpt lat="47.52881912" lon="2.05245031">
        <ele>168.87</ele>
        <time>2025-11-23T09:26:48Z</time>
      </trkpt>
      <trkpt lat="47.52877407" lon="2.05256847">
        <ele>170.5</ele>
        <time>2025-11-23T09:26:55Z</time>
      </trkpt>
      <trkpt lat="47.52873348" lon="2.05268779">
        <ele>168.68</ele>
        <time>2025-11-23T09:27:02Z</time>
      </trkpt>
      <trkpt lat="47.52869263" lon="2.05280964">
        <ele>170.23</ele>
        <time>2025-11-23T09:27:09Z</time>
      </trkpt>
      <trkpt lat="47.52866235" lon="2.05294827">
        <ele>170.7</ele>
        <time>2025-11-23T09:27:17Z</time>
      </trkpt>
      <trkpt lat="47.52863247" lon="2.05308388">
        <ele>171</ele>
        <time>2025-11-23T09:27:25Z</time>
      </trkpt>
      <trkpt lat="47.52859852" lon="2.0532163">
        <ele>169.83</ele>
        <time>2025-11-23T09:27:33Z</time>
      </trkpt>
      <trkpt lat="47.52856071" lon="2.05334398">
        <ele>167.11</ele>
        <time>2025-11-23T09:27:41Z</time>
      </trkpt>
      <trkpt lat="47.52852778" lon="2.05346852">
        <ele>165.53</ele>
        <time>2025-11-23T09:27:49Z</time>
      </trkpt>
      <trkpt lat="47.52848966" lon="2.05359022">
        <ele>165.14</ele>
        <time>2025-11-23T09:27:57Z</time>
      </trkpt>
      <trkpt lat="47.52845151" lon="2.05371295">
        <ele>164.15</ele>
        <time>2025-11-23T09:28:05Z</time>
      </trkpt>
      <trkpt lat="47.52841681" lon="2.05384977">
        <ele>164.35</ele>
        <time>2025-11-23T09:28:13Z</time>
      </trkpt>
      <trkpt lat="47.52838347" lon="2.053987">
        <ele>165.39</ele>
        <time>2025-11-23T09:28:21Z</time>
      </trkpt>
      <trkpt lat="47.52834926" lon="2.05411549">
        <ele>165.33</ele>
        <time>2025-11-23T09:28:28Z</time>
      </trkpt>
      <trkpt lat="47.52829865" lon="2.05424642">
        <ele>164.95</ele>
        <time>2025-11-23T09:28:37Z</time>
      </trkpt>
      <trkpt lat="47.52826166" lon="2.05436751">
        <ele>166.67</ele>
        <time>2025-11-23T09:28:44Z</time>
      </trkpt>
      <trkpt lat="47.52822085" lon="2.05448943">
        <ele>169.28</ele>
        <time>2025-11-23T09:28:51Z</time>
      </trkpt>
      <trkpt lat="47.52817594" lon="2.05462186">
        <ele>168.77</ele>
        <time>2025-11-23T09:28:59Z</time>
      </trkpt>
      <trkpt lat="47.52813238" lon="2.054741">
        <ele>169.15</ele>
        <time>2025-11-23T09:29:07Z</time>
      </trkpt>
      <trkpt lat="47.52808985" lon="2.0548663">
        <ele>167.89</ele>
        <time>2025-11-23T09:29:15Z</time>
      </trkpt>
      <trkpt lat="47.52804424" lon="2.05499257">
        <ele>168.27</ele>
        <time>2025-11-23T09:29:23Z</time>
      </trkpt>
      <trkpt lat="47.52798791" lon="2.0551018">
        <ele>168.57</ele>
        <time>2025-11-23T09:29:31Z</time>
      </trkpt>
      <trkpt lat="47.527911" lon="2.055195">
        <ele>167.75</ele>
        <time>2025-11-23T09:29:39Z</time>
      </trkpt>
      <trkpt lat="47.52785049" lon="2.05529356">
        <ele>166.98</ele>
        <time>2025-11-23T09:29:46Z</time>
      </trkpt>
      <trkpt lat="47.52779343" lon="2.05540833">
        <ele>166.09</ele>
        <time>2025-11-23T09:29:54Z</time>
      </trkpt>
      <trkpt lat="47.5277424" lon="2.05553802">
        <ele>167.11</ele>
        <time>2025-11-23T09:30:02Z</time>
      </trkpt>
      <trkpt lat="47.52769361" lon="2.05565428">
        <ele>167.72</ele>
        <time>2025-11-23T09:30:10Z</time>
      </trkpt>
      <trkpt lat="47.52765402" lon="2.05577605">
        <ele>167.71</ele>
        <time>2025-11-23T09:30:41Z</time>
      </trkpt>
      <trkpt lat="47.52757614" lon="2.05586083">
        <ele>169.11</ele>
        <time>2025-11-23T09:30:58Z</time>
      </trkpt>
      <trkpt lat="47.52755184" lon="2.05599212">
        <ele>169.71</ele>
        <time>2025-11-23T09:31:08Z</time>
      </trkpt>
      <trkpt lat="47.52762396" lon="2.05607497">
        <ele>171.23</ele>
        <time>2025-11-23T09:31:18Z</time>
      </trkpt>
      <trkpt lat="47.52769305" lon="2.05617112">
        <ele>171.02</ele>
        <time>2025-11-23T09:31:28Z</time>
      </trkpt>
      <trkpt lat="47.52775737" lon="2.05627001">
        <ele>171.74</ele>
        <time>2025-11-23T09:31:36Z</time>
      </trkpt>
      <trkpt lat="47.52774257" lon="2.05640452">
        <ele>173.81</ele>
        <time>2025-11-23T09:31:43Z</time>
      </trkpt>
      <trkpt lat="47.52771333" lon="2.05654262">
        <ele>172.19</ele>
        <time>2025-11-23T09:31:50Z</time>
      </trkpt>
      <trkpt lat="47.52769472" lon="2.05667474">
        <ele>172.9</ele>
        <time>2025-11-23T09:31:57Z</time>
      </trkpt>
      <trkpt lat="47.5276902" lon="2.05682396">
        <ele>172.92</ele>
        <time>2025-11-23T09:32:05Z</time>
      </trkpt>
      <trkpt lat="47.52770536" lon="2.05696551">
        <ele>171.08</ele>
        <time>2025-11-23T09:32:14Z</time>
      </trkpt>
      <trkpt lat="47.52772024" lon="2.05710365">
        <ele>169</ele>
        <time>2025-11-23T09:32:22Z</time>
      </trkpt>
      <trkpt lat="47.52774998" lon="2.05724636">
        <ele>167.17</ele>
        <time>2025-11-23T09:32:31Z</time>
      </trkpt>
      <trkpt lat="47.52776613" lon="2.05738619">
        <ele>168.37</ele>
        <time>2025-11-23T09:32:40Z</time>
      </trkpt>
      <trkpt lat="47.5277823" lon="2.05753472">
        <ele>168.4</ele>
        <time>2025-11-23T09:32:49Z</time>
      </trkpt>
      <trkpt lat="47.5278025" lon="2.05767479">
        <ele>167.47</ele>
        <time>2025-11-23T09:32:57Z</time>
      </trkpt>
      <trkpt lat="47.52781355" lon="2.05781538">
        <ele>167.51</ele>
        <time>2025-11-23T09:33:06Z</time>
      </trkpt>
      <trkpt lat="47.52783181" lon="2.05796563">
        <ele>168.05</ele>
        <time>2025-11-23T09:33:17Z</time>
      </trkpt>
      <trkpt lat="47.52784547" lon="2.05810503">
        <ele>171.41</ele>
        <time>2025-11-23T09:33:25Z</time>
      </trkpt>
      <trkpt lat="47.5278808" lon="2.05823159">
        <ele>171.08</ele>
        <time>2025-11-23T09:33:34Z</time>
      </trkpt>
      <trkpt lat="47.52790513" lon="2.05836171">
        <ele>172.53</ele>
        <time>2025-11-23T09:33:42Z</time>
      </trkpt>
      <trkpt lat="47.52794132" lon="2.05849077">
        <ele>172.44</ele>
        <time>2025-11-23T09:33:51Z</time>
      </trkpt>
      <trkpt lat="47.52797182" lon="2.0586227">
        <ele>172.34</ele>
        <time>2025-11-23T09:33:59Z</time>
      </trkpt>
      <trkpt lat="47.52800827" lon="2.05875311">
        <ele>172.46</ele>
        <time>2025-11-23T09:34:07Z</time>
      </trkpt>
      <trkpt lat="47.52804127" lon="2.05887744">
        <ele>171.11</ele>
        <time>2025-11-23T09:34:15Z</time>
      </trkpt>
      <trkpt lat="47.52808902" lon="2.05899707">
        <ele>170.49</ele>
        <time>2025-11-23T09:34:24Z</time>
      </trkpt>
      <trkpt lat="47.52812747" lon="2.05912155">
        <ele>167.4</ele>
        <time>2025-11-23T09:34:31Z</time>
      </trkpt>
      <trkpt lat="47.52815916" lon="2.05924896">
        <ele>167.05</ele>
        <time>2025-11-23T09:34:39Z</time>
      </trkpt>
      <trkpt lat="47.52818659" lon="2.05937806">
        <ele>164.78</ele>
        <time>2025-11-23T09:34:47Z</time>
      </trkpt>
      <trkpt lat="47.52820524" lon="2.05952125">
        <ele>167.93</ele>
        <time>2025-11-23T09:34:56Z</time>
      </trkpt>
      <trkpt lat="47.52823933" lon="2.05966196">
        <ele>167.82</ele>
        <time>2025-11-23T09:35:05Z</time>
      </trkpt>
      <trkpt lat="47.52826336" lon="2.05979623">
        <ele>172.94</ele>
        <time>2025-11-23T09:35:13Z</time>
      </trkpt>
      <trkpt lat="47.52830853" lon="2.05992767">
        <ele>172.9</ele>
        <time>2025-11-23T09:35:22Z</time>
      </trkpt>
      <trkpt lat="47.52831979" lon="2.06006612">
        <ele>171.23</ele>
        <time>2025-11-23T09:35:31Z</time>
      </trkpt>
      <trkpt lat="47.5283201" lon="2.0602063">
        <ele>171.48</ele>
        <time>2025-11-23T09:35:41Z</time>
      </trkpt>
      <trkpt lat="47.52827683" lon="2.06032596">
        <ele>170.86</ele>
        <time>2025-11-23T09:35:50Z</time>
      </trkpt>
      <trkpt lat="47.52822364" lon="2.0604341">
        <ele>167.39</ele>
        <time>2025-11-23T09:35:58Z</time>
      </trkpt>
      <trkpt lat="47.52818623" lon="2.06056194">
        <ele>167.31</ele>
        <time>2025-11-23T09:36:05Z</time>
      </trkpt>
      <trkpt lat="47.52813596" lon="2.06069066">
        <ele>168.84</ele>
        <time>2025-11-23T09:36:12Z</time>
      </trkpt>
      <trkpt lat="47.52809297" lon="2.06081185">
        <ele>169.4</ele>
        <time>2025-11-23T09:36:19Z</time>
      </trkpt>
      <trkpt lat="47.52807891" lon="2.06094419">
        <ele>169.33</ele>
        <time>2025-11-23T09:36:26Z</time>
      </trkpt>
      <trkpt lat="47.52808315" lon="2.06108445">
        <ele>172.04</ele>
        <time>2025-11-23T09:36:33Z</time>
      </trkpt>
      <trkpt lat="47.52810965" lon="2.06121609">
        <ele>171.72</ele>
        <time>2025-11-23T09:36:40Z</time>
      </trkpt>
      <trkpt lat="47.52812973" lon="2.06135662">
        <ele>170.67</ele>
        <time>2025-11-23T09:36:47Z</time>
      </trkpt>
      <trkpt lat="47.52815575" lon="2.06149128">
        <ele>169.52</ele>
        <time>2025-11-23T09:36:54Z</time>
      </trkpt>
      <trkpt lat="47.52816569" lon="2.06164064">
        <ele>170.28</ele>
        <time>2025-11-23T09:37:02Z</time>
      </trkpt>
      <trkpt lat="47.52816175" lon="2.0617873">
        <ele>169.99</ele>
        <time>2025-11-23T09:37:11Z</time>
      </trkpt>
      <trkpt lat="47.52815257" lon="2.06192419">
        <ele>169.78</ele>
        <time>2025-11-23T09:37:20Z</time>
      </trkpt>
      <trkpt lat="47.52813195" lon="2.0620784">
        <ele>169.25</ele>
        <time>2025-11-23T09:37:30Z</time>
      </trkpt>
      <trkpt lat="47.52810517" lon="2.06221902">
        <ele>168.43</ele>
        <time>2025-11-23T09:37:39Z</time>
      </trkpt>
      <trkpt lat="47.5280934" lon="2.06236523">
        <ele>170.2</ele>
        <time>2025-11-23T09:37:48Z</time>
      </trkpt>
      <trkpt lat="47.52808211" lon="2.0625026">
        <ele>170.66</ele>
        <time>2025-11-23T09:37:56Z</time>
      </trkpt>
      <trkpt lat="47.52807636" lon="2.06263854">
        <ele>172.01</ele>
        <time>2025-11-23T09:38:04Z</time>
      </trkpt>
      <trkpt lat="47.52806807" lon="2.06278538">
        <ele>173.73</ele>
        <time>2025-11-23T09:38:13Z</time>
      </trkpt>
      <trkpt lat="47.52805385" lon="2.06292315">
        <ele>174.23</ele>
        <time>2025-11-23T09:38:21Z</time>
      </trkpt>
      <trkpt lat="47.52804557" lon="2.06306526">
        <ele>175.61</ele>
        <time>2025-11-23T09:38:29Z</time>
      </trkpt>
      <trkpt lat="47.52803334" lon="2.06319877">
        <ele>176.75</ele>
        <time>2025-11-23T09:38:36Z</time>
      </trkpt>
      <trkpt lat="47.52801743" lon="2.06333902">
        <ele>175.74</ele>
        <time>2025-11-23T09:38:44Z</time>
      </trkpt>
      <trkpt lat="47.5279963" lon="2.0634714">
        <ele>172.43</ele>
        <time>2025-11-23T09:38:52Z</time>
      </trkpt>
      <trkpt lat="47.52799242" lon="2.06361453">
        <ele>171.05</ele>
        <time>2025-11-23T09:39:00Z</time>
      </trkpt>
      <trkpt lat="47.52796394" lon="2.06375591">
        <ele>172.97</ele>
        <time>2025-11-23T09:39:09Z</time>
      </trkpt>
      <trkpt lat="47.52795346" lon="2.06388974">
        <ele>175.76</ele>
        <time>2025-11-23T09:39:17Z</time>
      </trkpt>
      <trkpt lat="47.52794597" lon="2.06402398">
        <ele>178.19</ele>
        <time>2025-11-23T09:39:25Z</time>
      </trkpt>
      <trkpt lat="47.527951" lon="2.06417037">
        <ele>174.77</ele>
        <time>2025-11-23T09:39:34Z</time>
      </trkpt>
      <trkpt lat="47.52793211" lon="2.06430514">
        <ele>175.6</ele>
        <time>2025-11-23T09:39:43Z</time>
      </trkpt>
      <trkpt lat="47.52792335" lon="2.06444476">
        <ele>172.51</ele>
        <time>2025-11-23T09:39:51Z</time>
      </trkpt>
      <trkpt lat="47.52791587" lon="2.0645803">
        <ele>173.28</ele>
        <time>2025-11-23T09:39:59Z</time>
      </trkpt>
      <trkpt lat="47.52789639" lon="2.06472424">
        <ele>174.01</ele>
        <time>2025-11-23T09:40:08Z</time>
      </trkpt>
      <trkpt lat="47.52787554" lon="2.06486668">
        <ele>174.47</ele>
        <time>2025-11-23T09:40:17Z</time>
      </trkpt>
      <trkpt lat="47.52784856" lon="2.06500253">
        <ele>176.72</ele>
        <time>2025-11-23T09:40:25Z</time>
      </trkpt>
      <trkpt lat="47.52784288" lon="2.06514016">
        <ele>177.89</ele>
        <time>2025-11-23T09:40:34Z</time>
      </trkpt>
      <trkpt lat="47.52782505" lon="2.06528164">
        <ele>175.04</ele>
        <time>2025-11-23T09:40:43Z</time>
      </trkpt>
      <trkpt lat="47.52781342" lon="2.06543402">
        <ele>176.93</ele>
        <time>2025-11-23T09:40:51Z</time>
      </trkpt>
      <trkpt lat="47.52781053" lon="2.06556847">
        <ele>174.76</ele>
        <time>2025-11-23T09:40:59Z</time>
      </trkpt>
      <trkpt lat="47.52781317" lon="2.06570694">
        <ele>176.88</ele>
        <time>2025-11-23T09:41:07Z</time>
      </trkpt>
      <trkpt lat="47.52779876" lon="2.06584144">
        <ele>175.94</ele>
        <time>2025-11-23T09:41:15Z</time>
      </trkpt>
      <trkpt lat="47.52779261" lon="2.06597822">
        <ele>181.2</ele>
        <time>2025-11-23T09:41:24Z</time>
      </trkpt>
      <trkpt lat="47.52776665" lon="2.06611635">
        <ele>176.5</ele>
        <time>2025-11-23T09:41:33Z</time>
      </trkpt>
      <trkpt lat="47.52776424" lon="2.06626744">
        <ele>176.51</ele>
        <time>2025-11-23T09:41:41Z</time>
      </trkpt>
      <trkpt lat="47.5277406" lon="2.06640933">
        <ele>177.68</ele>
        <time>2025-11-23T09:41:49Z</time>
      </trkpt>
      <trkpt lat="47.52771198" lon="2.0665416">
        <ele>173.36</ele>
        <time>2025-11-23T09:41:57Z</time>
      </trkpt>
      <trkpt lat="47.5277247" lon="2.0666756">
        <ele>174.3</ele>
        <time>2025-11-23T09:42:06Z</time>
      </trkpt>
      <trkpt lat="47.52771556" lon="2.06681832">
        <ele>180.2</ele>
        <time>2025-11-23T09:42:14Z</time>
      </trkpt>
      <trkpt lat="47.52770816" lon="2.06696688">
        <ele>179.16</ele>
        <time>2025-11-23T09:42:23Z</time>
      </trkpt>
      <trkpt lat="47.52770805" lon="2.06710921">
        <ele>183.71</ele>
        <time>2025-11-23T09:42:31Z</time>
      </trkpt>
      <trkpt lat="47.52767481" lon="2.06724673">
        <ele>181.89</ele>
        <time>2025-11-23T09:42:39Z</time>
      </trkpt>
      <trkpt lat="47.52761916" lon="2.06736864">
        <ele>175.85</ele>
        <time>2025-11-23T09:42:47Z</time>
      </trkpt>
      <trkpt lat="47.52756362" lon="2.06749232">
        <ele>172.29</ele>
        <time>2025-11-23T09:42:55Z</time>
      </trkpt>
      <trkpt lat="47.52752449" lon="2.06761956">
        <ele>173.92</ele>
        <time>2025-11-23T09:43:04Z</time>
      </trkpt>
      <trkpt lat="47.52751332" lon="2.06775239">
        <ele>173.82</ele>
        <time>2025-11-23T09:43:12Z</time>
      </trkpt>
      <trkpt lat="47.52749347" lon="2.06788219">
        <ele>174.07</ele>
        <time>2025-11-23T09:43:20Z</time>
      </trkpt>
      <trkpt lat="47.52746916" lon="2.06801553">
        <ele>176.44</ele>
        <time>2025-11-23T09:43:29Z</time>
      </trkpt>
      <trkpt lat="47.52746503" lon="2.06815137">
        <ele>175.19</ele>
        <time>2025-11-23T09:43:37Z</time>
      </trkpt>
      <trkpt lat="47.52746593" lon="2.06828569">
        <ele>170.93</ele>
        <time>2025-11-23T09:43:46Z</time>
      </trkpt>
      <trkpt lat="47.52745329" lon="2.06842583">
        <ele>173.2</ele>
        <time>2025-11-23T09:43:54Z</time>
      </trkpt>
      <trkpt lat="47.52743547" lon="2.06857238">
        <ele>174.12</ele>
        <time>2025-11-23T09:44:02Z</time>
      </trkpt>
      <trkpt lat="47.52742204" lon="2.06871408">
        <ele>174.48</ele>
        <time>2025-11-23T09:44:10Z</time>
      </trkpt>
      <trkpt lat="47.5273994" lon="2.06885567">
        <ele>174.68</ele>
        <time>2025-11-23T09:44:19Z</time>
      </trkpt>
      <trkpt lat="47.52738096" lon="2.0689969">
        <ele>179.68</ele>
        <time>2025-11-23T09:44:27Z</time>
      </trkpt>
      <trkpt lat="47.52736414" lon="2.06913077">
        <ele>179.01</ele>
        <time>2025-11-23T09:44:35Z</time>
      </trkpt>
      <trkpt lat="47.5273256" lon="2.06926336">
        <ele>175.28</ele>
        <time>2025-11-23T09:44:44Z</time>
      </trkpt>
      <trkpt lat="47.52733588" lon="2.06939893">
        <ele>175.84</ele>
        <time>2025-11-23T09:44:52Z</time>
      </trkpt>
      <trkpt lat="47.52734373" lon="2.06954789">
        <ele>178.79</ele>
        <time>2025-11-23T09:45:01Z</time>
      </trkpt>
      <trkpt lat="47.52734809" lon="2.06968209">
        <ele>178.74</ele>
        <time>2025-11-23T09:45:09Z</time>
      </trkpt>
      <trkpt lat="47.52737164" lon="2.06981083">
        <ele>177.47</ele>
        <time>2025-11-23T09:45:16Z</time>
      </trkpt>
      <trkpt lat="47.52737913" lon="2.06994958">
        <ele>177.65</ele>
        <time>2025-11-23T09:45:24Z</time>
      </trkpt>
      <trkpt lat="47.52737626" lon="2.07008528">
        <ele>169.73</ele>
        <time>2025-11-23T09:45:34Z</time>
      </trkpt>
      <trkpt lat="47.52738144" lon="2.0702213">
        <ele>169.63</ele>
        <time>2025-11-23T09:45:41Z</time>
      </trkpt>
      <trkpt lat="47.5273686" lon="2.0703695">
        <ele>170.58</ele>
        <time>2025-11-23T09:45:49Z</time>
      </trkpt>
      <trkpt lat="47.52735478" lon="2.07051728">
        <ele>171.35</ele>
        <time>2025-11-23T09:45:58Z</time>
      </trkpt>
      <trkpt lat="47.5273411" lon="2.07065288">
        <ele>171.78</ele>
        <time>2025-11-23T09:46:06Z</time>
      </trkpt>
      <trkpt lat="47.52732774" lon="2.07079993">
        <ele>170.42</ele>
        <time>2025-11-23T09:46:15Z</time>
      </trkpt>
      <trkpt lat="47.52732428" lon="2.07093828">
        <ele>169.05</ele>
        <time>2025-11-23T09:46:23Z</time>
      </trkpt>
      <trkpt lat="47.527328" lon="2.07107393">
        <ele>167.28</ele>
        <time>2025-11-23T09:46:31Z</time>
      </trkpt>
      <trkpt lat="47.52729773" lon="2.07122125">
        <ele>172.55</ele>
        <time>2025-11-23T09:46:38Z</time>
      </trkpt>
      <trkpt lat="47.52729213" lon="2.07136482">
        <ele>173.68</ele>
        <time>2025-11-23T09:46:46Z</time>
      </trkpt>
      <trkpt lat="47.52727492" lon="2.0714991">
        <ele>176.24</ele>
        <time>2025-11-23T09:46:54Z</time>
      </trkpt>
      <trkpt lat="47.52727283" lon="2.07163764">
        <ele>174.84</ele>
        <time>2025-11-23T09:47:02Z</time>
      </trkpt>
      <trkpt lat="47.52729619" lon="2.0717842">
        <ele>174.74</ele>
        <time>2025-11-23T09:47:11Z</time>
      </trkpt>
      <trkpt lat="47.52729723" lon="2.07192818">
        <ele>174.55</ele>
        <time>2025-11-23T09:47:19Z</time>
      </trkpt>
      <trkpt lat="47.52722994" lon="2.07202933">
        <ele>175.51</ele>
        <time>2025-11-23T09:47:28Z</time>
      </trkpt>
      <trkpt lat="47.52717275" lon="2.07214756">
        <ele>176.63</ele>
        <time>2025-11-23T09:47:37Z</time>
      </trkpt>
      <trkpt lat="47.52709948" lon="2.07222826">
        <ele>172.96</ele>
        <time>2025-11-23T09:47:44Z</time>
      </trkpt>
      <trkpt lat="47.52701803" lon="2.07228668">
        <ele>177.48</ele>
        <time>2025-11-23T09:47:51Z</time>
      </trkpt>
      <trkpt lat="47.52693854" lon="2.07236713">
        <ele>170.88</ele>
        <time>2025-11-23T09:47:59Z</time>
      </trkpt>
      <trkpt lat="47.52686435" lon="2.07245613">
        <ele>170.32</ele>
        <time>2025-11-23T09:48:07Z</time>
      </trkpt>
      <trkpt lat="47.52678497" lon="2.07252148">
        <ele>167.74</ele>
        <time>2025-11-23T09:48:15Z</time>
      </trkpt>
      <trkpt lat="47.52669972" lon="2.07258021">
        <ele>170.36</ele>
        <time>2025-11-23T09:48:22Z</time>
      </trkpt>
      <trkpt lat="47.52661296" lon="2.07264701">
        <ele>170.23</ele>
        <time>2025-11-23T09:48:29Z</time>
      </trkpt>
      <trkpt lat="47.52652247" lon="2.0727162">
        <ele>172.23</ele>
        <time>2025-11-23T09:48:36Z</time>
      </trkpt>
      <trkpt lat="47.52644319" lon="2.0727932">
        <ele>174.04</ele>
        <time>2025-11-23T09:48:45Z</time>
      </trkpt>
      <trkpt lat="47.52635782" lon="2.07284583">
        <ele>171.81</ele>
        <time>2025-11-23T09:48:52Z</time>
      </trkpt>
      <trkpt lat="47.52629417" lon="2.07272977">
        <ele>169.86</ele>
        <time>2025-11-23T09:49:00Z</time>
      </trkpt>
      <trkpt lat="47.52624511" lon="2.07259744">
        <ele>172.71</ele>
        <time>2025-11-23T09:49:17Z</time>
      </trkpt>
      <trkpt lat="47.52616743" lon="2.07251483">
        <ele>171.58</ele>
        <time>2025-11-23T09:49:28Z</time>
      </trkpt>
      <trkpt lat="47.52606922" lon="2.07248819">
        <ele>167.24</ele>
        <time>2025-11-23T09:49:37Z</time>
      </trkpt>
      <trkpt lat="47.52597918" lon="2.07254945">
        <ele>165.2</ele>
        <time>2025-11-23T09:49:47Z</time>
      </trkpt>
      <trkpt lat="47.52591861" lon="2.07266216">
        <ele>162.33</ele>
        <time>2025-11-23T09:49:56Z</time>
      </trkpt>
      <trkpt lat="47.52582132" lon="2.07269864">
        <ele>167.87</ele>
        <time>2025-11-23T09:50:05Z</time>
      </trkpt>
      <trkpt lat="47.52573539" lon="2.07274773">
        <ele>172.25</ele>
        <time>2025-11-23T09:50:14Z</time>
      </trkpt>
      <trkpt lat="47.52564213" lon="2.07279223">
        <ele>175.51</ele>
        <time>2025-11-23T09:50:23Z</time>
      </trkpt>
      <trkpt lat="47.52556669" lon="2.07286808">
        <ele>176.42</ele>
        <time>2025-11-23T09:50:32Z</time>
      </trkpt>
      <trkpt lat="47.52549156" lon="2.07294274">
        <ele>172.92</ele>
        <time>2025-11-23T09:50:42Z</time>
      </trkpt>
      <trkpt lat="47.52540469" lon="2.07300632">
        <ele>174.77</ele>
        <time>2025-11-23T09:50:52Z</time>
      </trkpt>
      <trkpt lat="47.52531992" lon="2.07305349">
        <ele>175.84</ele>
        <time>2025-11-23T09:50:59Z</time>
      </trkpt>
      <trkpt lat="47.52522578" lon="2.07310301">
        <ele>170.45</ele>
        <time>2025-11-23T09:51:08Z</time>
      </trkpt>
      <trkpt lat="47.52515209" lon="2.07318719">
        <ele>168.62</ele>
        <time>2025-11-23T09:51:17Z</time>
      </trkpt>
      <trkpt lat="47.52506465" lon="2.07325014">
        <ele>171.71</ele>
        <time>2025-11-23T09:51:25Z</time>
      </trkpt>
      <trkpt lat="47.52497763" lon="2.07332073">
        <ele>174.07</ele>
        <time>2025-11-23T09:51:33Z</time>
      </trkpt>
      <trkpt lat="47.52490372" lon="2.0734218">
        <ele>174.19</ele>
        <time>2025-11-23T09:51:42Z</time>
      </trkpt>
      <trkpt lat="47.52481629" lon="2.07348844">
        <ele>173.62</ele>
        <time>2025-11-23T09:51:51Z</time>
      </trkpt>
      <trkpt lat="47.52473865" lon="2.07355703">
        <ele>169.31</ele>
        <time>2025-11-23T09:51:59Z</time>
      </trkpt>
      <trkpt lat="47.52465456" lon="2.07362379">
        <ele>170.38</ele>
        <time>2025-11-23T09:52:09Z</time>
      </trkpt>
      <trkpt lat="47.5245751" lon="2.07370508">
        <ele>170.6</ele>
        <time>2025-11-23T09:52:18Z</time>
      </trkpt>
      <trkpt lat="47.5244917" lon="2.07376163">
        <ele>172.21</ele>
        <time>2025-11-23T09:52:28Z</time>
      </trkpt>
      <trkpt lat="47.52439717" lon="2.07379728">
        <ele>170.73</ele>
        <time>2025-11-23T09:52:36Z</time>
      </trkpt>
      <trkpt lat="47.52431805" lon="2.07388415">
        <ele>172.06</ele>
        <time>2025-11-23T09:52:44Z</time>
      </trkpt>
      <trkpt lat="47.52428901" lon="2.07402419">
        <ele>172.17</ele>
        <time>2025-11-23T09:52:54Z</time>
      </trkpt>
      <trkpt lat="47.52424908" lon="2.07414895">
        <ele>168.7</ele>
        <time>2025-11-23T09:53:19Z</time>
      </trkpt>
      <trkpt lat="47.52420177" lon="2.07426531">
        <ele>172.37</ele>
        <time>2025-11-23T09:53:28Z</time>
      </trkpt>
      <trkpt lat="47.52416932" lon="2.07439888">
        <ele>173.23</ele>
        <time>2025-11-23T09:53:38Z</time>
      </trkpt>
      <trkpt lat="47.52413219" lon="2.07452903">
        <ele>169.95</ele>
        <time>2025-11-23T09:53:47Z</time>
      </trkpt>
      <trkpt lat="47.52410364" lon="2.07466895">
        <ele>173.94</ele>
        <time>2025-11-23T09:53:55Z</time>
      </trkpt>
      <trkpt lat="47.52405416" lon="2.07478775">
        <ele>175.26</ele>
        <time>2025-11-23T09:54:03Z</time>
      </trkpt>
      <trkpt lat="47.5239757" lon="2.07485938">
        <ele>178.3</ele>
        <time>2025-11-23T09:54:11Z</time>
      </trkpt>
      <trkpt lat="47.52387951" lon="2.07489539">
        <ele>176.96</ele>
        <time>2025-11-23T09:54:19Z</time>
      </trkpt>
      <trkpt lat="47.52378299" lon="2.07493555">
        <ele>177.03</ele>
        <time>2025-11-23T09:54:28Z</time>
      </trkpt>
      <trkpt lat="47.52369885" lon="2.07499435">
        <ele>176.69</ele>
        <time>2025-11-23T09:54:37Z</time>
      </trkpt>
      <trkpt lat="47.52361113" lon="2.07503111">
        <ele>173.71</ele>
        <time>2025-11-23T09:54:45Z</time>
      </trkpt>
      <trkpt lat="47.52351902" lon="2.07506208">
        <ele>176.23</ele>
        <time>2025-11-23T09:54:54Z</time>
      </trkpt>
      <trkpt lat="47.5234212" lon="2.07509572">
        <ele>176.08</ele>
        <time>2025-11-23T09:55:03Z</time>
      </trkpt>
      <trkpt lat="47.52333061" lon="2.07503986">
        <ele>177.13</ele>
        <time>2025-11-23T09:55:11Z</time>
      </trkpt>
      <trkpt lat="47.52325651" lon="2.07494436">
        <ele>179.73</ele>
        <time>2025-11-23T09:55:19Z</time>
      </trkpt>
      <trkpt lat="47.52318886" lon="2.07485488">
        <ele>174.9</ele>
        <time>2025-11-23T09:55:28Z</time>
      </trkpt>
      <trkpt lat="47.52309732" lon="2.07480062">
        <ele>176.95</ele>
        <time>2025-11-23T09:55:37Z</time>
      </trkpt>
      <trkpt lat="47.52301631" lon="2.0747131">
        <ele>176.06</ele>
        <time>2025-11-23T09:55:46Z</time>
      </trkpt>
      <trkpt lat="47.52294504" lon="2.07463005">
        <ele>177.84</ele>
        <time>2025-11-23T09:55:54Z</time>
      </trkpt>
      <trkpt lat="47.52286946" lon="2.07453739">
        <ele>176.42</ele>
        <time>2025-11-23T09:56:03Z</time>
      </trkpt>
      <trkpt lat="47.52279892" lon="2.07445396">
        <ele>178.57</ele>
        <time>2025-11-23T09:56:11Z</time>
      </trkpt>
      <trkpt lat="47.52271662" lon="2.07438793">
        <ele>177.38</ele>
        <time>2025-11-23T09:56:19Z</time>
      </trkpt>
      <trkpt lat="47.5226296" lon="2.07433545">
        <ele>175.9</ele>
        <time>2025-11-23T09:56:28Z</time>
      </trkpt>
      <trkpt lat="47.52254753" lon="2.07426302">
        <ele>175.03</ele>
        <time>2025-11-23T09:56:36Z</time>
      </trkpt>
      <trkpt lat="47.52247633" lon="2.0741603">
        <ele>176.07</ele>
        <time>2025-11-23T09:56:45Z</time>
      </trkpt>
      <trkpt lat="47.52240861" lon="2.07406873">
        <ele>175.14</ele>
        <time>2025-11-23T09:56:54Z</time>
      </trkpt>
      <trkpt lat="47.52232443" lon="2.07401035">
        <ele>180.32</ele>
        <time>2025-11-23T09:57:02Z</time>
      </trkpt>
      <trkpt lat="47.52224367" lon="2.0739487">
        <ele>180.95</ele>
        <time>2025-11-23T09:57:10Z</time>
      </trkpt>
      <trkpt lat="47.52215274" lon="2.07389106">
        <ele>181.17</ele>
        <time>2025-11-23T09:57:19Z</time>
      </trkpt>
      <trkpt lat="47.52206505" lon="2.07384469">
        <ele>178.12</ele>
        <time>2025-11-23T09:57:27Z</time>
      </trkpt>
      <trkpt lat="47.5219903" lon="2.07376898">
        <ele>182.49</ele>
        <time>2025-11-23T09:57:36Z</time>
      </trkpt>
      <trkpt lat="47.52191819" lon="2.07367943">
        <ele>181.72</ele>
        <time>2025-11-23T09:57:45Z</time>
      </trkpt>
      <trkpt lat="47.52186038" lon="2.07357506">
        <ele>185.7</ele>
        <time>2025-11-23T09:57:55Z</time>
      </trkpt>
      <trkpt lat="47.52186133" lon="2.07341345">
        <ele>187.97</ele>
        <time>2025-11-23T09:58:10Z</time>
      </trkpt>
      <trkpt lat="47.52187313" lon="2.07328092">
        <ele>189.91</ele>
        <time>2025-11-23T09:58:20Z</time>
      </trkpt>
      <trkpt lat="47.52189715" lon="2.07315237">
        <ele>190.21</ele>
        <time>2025-11-23T09:58:29Z</time>
      </trkpt>
      <trkpt lat="47.52190087" lon="2.07301716">
        <ele>190.84</ele>
        <time>2025-11-23T09:58:39Z</time>
      </trkpt>
      <trkpt lat="47.52189774" lon="2.07286793">
        <ele>183.25</ele>
        <time>2025-11-23T09:58:51Z</time>
      </trkpt>
      <trkpt lat="47.52188372" lon="2.07273129">
        <ele>182.76</ele>
        <time>2025-11-23T09:59:01Z</time>
      </trkpt>
      <trkpt lat="47.52190706" lon="2.0725994">
        <ele>178.36</ele>
        <time>2025-11-23T09:59:09Z</time>
      </trkpt>
      <trkpt lat="47.52191324" lon="2.07245026">
        <ele>180.29</ele>
        <time>2025-11-23T09:59:19Z</time>
      </trkpt>
      <trkpt lat="47.52193854" lon="2.0723089">
        <ele>181.53</ele>
        <time>2025-11-23T09:59:31Z</time>
      </trkpt>
      <trkpt lat="47.52197848" lon="2.07217846">
        <ele>176.79</ele>
        <time>2025-11-23T09:59:40Z</time>
      </trkpt>
      <trkpt lat="47.52197615" lon="2.07204277">
        <ele>176.86</ele>
        <time>2025-11-23T09:59:50Z</time>
      </trkpt>
      <trkpt lat="47.52200681" lon="2.07190709">
        <ele>174.3</ele>
        <time>2025-11-23T10:00:00Z</time>
      </trkpt>
      <trkpt lat="47.5219914" lon="2.07177408">
        <ele>172.47</ele>
        <time>2025-11-23T10:00:10Z</time>
      </trkpt>
      <trkpt lat="47.52199759" lon="2.07163936">
        <ele>168.88</ele>
        <time>2025-11-23T10:00:19Z</time>
      </trkpt>
      <trkpt lat="47.52202295" lon="2.07151146">
        <ele>168.23</ele>
        <time>2025-11-23T10:00:27Z</time>
      </trkpt>
      <trkpt lat="47.5220257" lon="2.07136659">
        <ele>167.5</ele>
        <time>2025-11-23T10:00:36Z</time>
      </trkpt>
      <trkpt lat="47.52205162" lon="2.071234">
        <ele>166.53</ele>
        <time>2025-11-23T10:00:46Z</time>
      </trkpt>
      <trkpt lat="47.52206423" lon="2.07109536">
        <ele>164.23</ele>
        <time>2025-11-23T10:00:56Z</time>
      </trkpt>
      <trkpt lat="47.52207877" lon="2.07095426">
        <ele>164.44</ele>
        <time>2025-11-23T10:01:06Z</time>
      </trkpt>
      <trkpt lat="47.52207134" lon="2.07082108">
        <ele>167.7</ele>
        <time>2025-11-23T10:02:40Z</time>
      </trkpt>
      <trkpt lat="47.52212415" lon="2.07063697">
        <ele>173.44</ele>
        <time>2025-11-23T10:02:54Z</time>
      </trkpt>
      <trkpt lat="47.52215593" lon="2.07050496">
        <ele>171.41</ele>
        <time>2025-11-23T10:03:01Z</time>
      </trkpt>
      <trkpt lat="47.5221767" lon="2.07036686">
        <ele>167.09</ele>
        <time>2025-11-23T10:03:09Z</time>
      </trkpt>
      <trkpt lat="47.52219504" lon="2.0702256">
        <ele>167.19</ele>
        <time>2025-11-23T10:03:17Z</time>
      </trkpt>
      <trkpt lat="47.52219069" lon="2.070081">
        <ele>171.62</ele>
        <time>2025-11-23T10:03:24Z</time>
      </trkpt>
      <trkpt lat="47.52223421" lon="2.06996163">
        <ele>171.79</ele>
        <time>2025-11-23T10:03:33Z</time>
      </trkpt>
      <trkpt lat="47.52226792" lon="2.06982411">
        <ele>172.94</ele>
        <time>2025-11-23T10:03:43Z</time>
      </trkpt>
      <trkpt lat="47.52226885" lon="2.06968355">
        <ele>170.24</ele>
        <time>2025-11-23T10:04:02Z</time>
      </trkpt>
      <trkpt lat="47.52228874" lon="2.06954924">
        <ele>166.45</ele>
        <time>2025-11-23T10:04:13Z</time>
      </trkpt>
      <trkpt lat="47.522317" lon="2.06940152">
        <ele>170.15</ele>
        <time>2025-11-23T10:04:23Z</time>
      </trkpt>
      <trkpt lat="47.52233474" lon="2.06927023">
        <ele>166.91</ele>
        <time>2025-11-23T10:04:32Z</time>
      </trkpt>
      <trkpt lat="47.52233764" lon="2.06913153">
        <ele>166.45</ele>
        <time>2025-11-23T10:04:41Z</time>
      </trkpt>
      <trkpt lat="47.52234044" lon="2.0689866">
        <ele>168.81</ele>
        <time>2025-11-23T10:04:51Z</time>
      </trkpt>
      <trkpt lat="47.5223551" lon="2.06884602">
        <ele>168.65</ele>
        <time>2025-11-23T10:05:00Z</time>
      </trkpt>
      <trkpt lat="47.5223761" lon="2.06870916">
        <ele>167.92</ele>
        <time>2025-11-23T10:05:10Z</time>
      </trkpt>
      <trkpt lat="47.52235445" lon="2.06857424">
        <ele>169.53</ele>
        <time>2025-11-23T10:05:19Z</time>
      </trkpt>
      <trkpt lat="47.52236279" lon="2.06844062">
        <ele>171.32</ele>
        <time>2025-11-23T10:05:33Z</time>
      </trkpt>
      <trkpt lat="47.52239587" lon="2.06831703">
        <ele>170.3</ele>
        <time>2025-11-23T10:05:52Z</time>
      </trkpt>
      <trkpt lat="47.52238188" lon="2.06817933">
        <ele>169.38</ele>
        <time>2025-11-23T10:06:04Z</time>
      </trkpt>
      <trkpt lat="47.52239603" lon="2.06804334">
        <ele>169.9</ele>
        <time>2025-11-23T10:06:14Z</time>
      </trkpt>
      <trkpt lat="47.52237456" lon="2.06790599">
        <ele>170.44</ele>
        <time>2025-11-23T10:06:25Z</time>
      </trkpt>
      <trkpt lat="47.52239215" lon="2.06777547">
        <ele>168.02</ele>
        <time>2025-11-23T10:06:52Z</time>
      </trkpt>
      <trkpt lat="47.52230568" lon="2.06770465">
        <ele>174.57</ele>
        <time>2025-11-23T10:07:39Z</time>
      </trkpt>
      <trkpt lat="47.52222305" lon="2.06764995">
        <ele>173.71</ele>
        <time>2025-11-23T10:07:59Z</time>
      </trkpt>
      <trkpt lat="47.52213836" lon="2.06757748">
        <ele>173.52</ele>
        <time>2025-11-23T10:08:20Z</time>
      </trkpt>
      <trkpt lat="47.52205659" lon="2.06750557">
        <ele>173.5</ele>
        <time>2025-11-23T10:08:30Z</time>
      </trkpt>
      <trkpt lat="47.52198091" lon="2.06742463">
        <ele>171.62</ele>
        <time>2025-11-23T10:08:45Z</time>
      </trkpt>
      <trkpt lat="47.5219112" lon="2.06732312">
        <ele>164.31</ele>
        <time>2025-11-23T10:08:56Z</time>
      </trkpt>
      <trkpt lat="47.52183358" lon="2.06724198">
        <ele>167.61</ele>
        <time>2025-11-23T10:09:05Z</time>
      </trkpt>
      <trkpt lat="47.52176224" lon="2.06716066">
        <ele>169.16</ele>
        <time>2025-11-23T10:09:15Z</time>
      </trkpt>
      <trkpt lat="47.52168754" lon="2.06706719">
        <ele>167.57</ele>
        <time>2025-11-23T10:09:25Z</time>
      </trkpt>
      <trkpt lat="47.52161821" lon="2.06696725">
        <ele>168.39</ele>
        <time>2025-11-23T10:09:34Z</time>
      </trkpt>
      <trkpt lat="47.52154483" lon="2.06688">
        <ele>166.79</ele>
        <time>2025-11-23T10:09:44Z</time>
      </trkpt>
      <trkpt lat="47.5214684" lon="2.06680592">
        <ele>165.66</ele>
        <time>2025-11-23T10:09:53Z</time>
      </trkpt>
      <trkpt lat="47.52139771" lon="2.06672154">
        <ele>168.72</ele>
        <time>2025-11-23T10:10:03Z</time>
      </trkpt>
      <trkpt lat="47.5213309" lon="2.06662702">
        <ele>168.09</ele>
        <time>2025-11-23T10:10:15Z</time>
      </trkpt>
      <trkpt lat="47.52128516" lon="2.06650318">
        <ele>165.46</ele>
        <time>2025-11-23T10:10:27Z</time>
      </trkpt>
      <trkpt lat="47.52121391" lon="2.06640875">
        <ele>165.69</ele>
        <time>2025-11-23T10:10:37Z</time>
      </trkpt>
      <trkpt lat="47.52113671" lon="2.06633713">
        <ele>163.35</ele>
        <time>2025-11-23T10:10:47Z</time>
      </trkpt>
      <trkpt lat="47.52105445" lon="2.06625717">
        <ele>162.26</ele>
        <time>2025-11-23T10:10:54Z</time>
      </trkpt>
      <trkpt lat="47.52099625" lon="2.06614122">
        <ele>162.66</ele>
        <time>2025-11-23T10:11:03Z</time>
      </trkpt>
      <trkpt lat="47.52093006" lon="2.06603689">
        <ele>164.9</ele>
        <time>2025-11-23T10:11:09Z</time>
      </trkpt>
      <trkpt lat="47.52085583" lon="2.06595395">
        <ele>166.53</ele>
        <time>2025-11-23T10:11:17Z</time>
      </trkpt>
      <trkpt lat="47.52076595" lon="2.06590999">
        <ele>164.25</ele>
        <time>2025-11-23T10:11:40Z</time>
      </trkpt>
      <trkpt lat="47.52069187" lon="2.06582443">
        <ele>163.93</ele>
        <time>2025-11-23T10:11:48Z</time>
      </trkpt>
      <trkpt lat="47.52061718" lon="2.06572632">
        <ele>166.17</ele>
        <time>2025-11-23T10:11:58Z</time>
      </trkpt>
      <trkpt lat="47.52057147" lon="2.06560998">
        <ele>165.94</ele>
        <time>2025-11-23T10:12:07Z</time>
      </trkpt>
      <trkpt lat="47.52059867" lon="2.06547304">
        <ele>165.98</ele>
        <time>2025-11-23T10:12:15Z</time>
      </trkpt>
      <trkpt lat="47.52064535" lon="2.06534125">
        <ele>164.39</ele>
        <time>2025-11-23T10:12:23Z</time>
      </trkpt>
      <trkpt lat="47.52067068" lon="2.06521157">
        <ele>163.49</ele>
        <time>2025-11-23T10:12:30Z</time>
      </trkpt>
      <trkpt lat="47.52070003" lon="2.0650818">
        <ele>159.59</ele>
        <time>2025-11-23T10:12:37Z</time>
      </trkpt>
      <trkpt lat="47.52072056" lon="2.06494115">
        <ele>158.82</ele>
        <time>2025-11-23T10:12:44Z</time>
      </trkpt>
      <trkpt lat="47.52071911" lon="2.06479683">
        <ele>157.76</ele>
        <time>2025-11-23T10:12:51Z</time>
      </trkpt>
      <trkpt lat="47.52073262" lon="2.06465871">
        <ele>159.42</ele>
        <time>2025-11-23T10:12:57Z</time>
      </trkpt>
      <trkpt lat="47.52073818" lon="2.06452312">
        <ele>162.02</ele>
        <time>2025-11-23T10:13:03Z</time>
      </trkpt>
      <trkpt lat="47.52074977" lon="2.06438277">
        <ele>165.56</ele>
        <time>2025-11-23T10:13:09Z</time>
      </trkpt>
      <trkpt lat="47.52073139" lon="2.06425221">
        <ele>166.8</ele>
        <time>2025-11-23T10:13:16Z</time>
      </trkpt>
      <trkpt lat="47.520717" lon="2.06410363">
        <ele>168.01</ele>
        <time>2025-11-23T10:13:24Z</time>
      </trkpt>
      <trkpt lat="47.5206988" lon="2.06397215">
        <ele>175.49</ele>
        <time>2025-11-23T10:13:30Z</time>
      </trkpt>
      <trkpt lat="47.5206916" lon="2.06383671">
        <ele>176.8</ele>
        <time>2025-11-23T10:13:36Z</time>
      </trkpt>
      <trkpt lat="47.52069819" lon="2.06369602">
        <ele>174.7</ele>
        <time>2025-11-23T10:13:44Z</time>
      </trkpt>
      <trkpt lat="47.52071669" lon="2.06354517">
        <ele>182.45</ele>
        <time>2025-11-23T10:13:52Z</time>
      </trkpt>
      <trkpt lat="47.52073048" lon="2.06340698">
        <ele>179.03</ele>
        <time>2025-11-23T10:14:00Z</time>
      </trkpt>
      <trkpt lat="47.5207549" lon="2.06326669">
        <ele>180.52</ele>
        <time>2025-11-23T10:14:08Z</time>
      </trkpt>
      <trkpt lat="47.52076483" lon="2.06312213">
        <ele>181.22</ele>
        <time>2025-11-23T10:14:15Z</time>
      </trkpt>
      <trkpt lat="47.52079257" lon="2.06298284">
        <ele>184.22</ele>
        <time>2025-11-23T10:14:22Z</time>
      </trkpt>
      <trkpt lat="47.52079561" lon="2.06284709">
        <ele>180.34</ele>
        <time>2025-11-23T10:14:29Z</time>
      </trkpt>
      <trkpt lat="47.52076384" lon="2.06271553">
        <ele>178.17</ele>
        <time>2025-11-23T10:14:36Z</time>
      </trkpt>
      <trkpt lat="47.52078933" lon="2.06257879">
        <ele>174.62</ele>
        <time>2025-11-23T10:14:42Z</time>
      </trkpt>
      <trkpt lat="47.52079807" lon="2.06244141">
        <ele>173.47</ele>
        <time>2025-11-23T10:14:49Z</time>
      </trkpt>
      <trkpt lat="47.52079994" lon="2.06230491">
        <ele>175.12</ele>
        <time>2025-11-23T10:14:56Z</time>
      </trkpt>
      <trkpt lat="47.52081719" lon="2.06217402">
        <ele>171.47</ele>
        <time>2025-11-23T10:15:04Z</time>
      </trkpt>
      <trkpt lat="47.52083523" lon="2.0620399">
        <ele>168.81</ele>
        <time>2025-11-23T10:15:12Z</time>
      </trkpt>
      <trkpt lat="47.52085828" lon="2.06190971">
        <ele>167.05</ele>
        <time>2025-11-23T10:15:20Z</time>
      </trkpt>
      <trkpt lat="47.52085631" lon="2.06176962">
        <ele>166.29</ele>
        <time>2025-11-23T10:15:28Z</time>
      </trkpt>
      <trkpt lat="47.5208696" lon="2.06163619">
        <ele>168.94</ele>
        <time>2025-11-23T10:15:35Z</time>
      </trkpt>
      <trkpt lat="47.52089846" lon="2.06150779">
        <ele>167.96</ele>
        <time>2025-11-23T10:15:42Z</time>
      </trkpt>
      <trkpt lat="47.52091284" lon="2.06137204">
        <ele>169.91</ele>
        <time>2025-11-23T10:15:50Z</time>
      </trkpt>
      <trkpt lat="47.52092591" lon="2.06123655">
        <ele>169.45</ele>
        <time>2025-11-23T10:15:58Z</time>
      </trkpt>
      <trkpt lat="47.52094188" lon="2.0610991">
        <ele>160.38</ele>
        <time>2025-11-23T10:16:08Z</time>
      </trkpt>
      <trkpt lat="47.52094001" lon="2.060962">
        <ele>160.81</ele>
        <time>2025-11-23T10:16:18Z</time>
      </trkpt>
      <trkpt lat="47.52096024" lon="2.06082826">
        <ele>159.61</ele>
        <time>2025-11-23T10:16:28Z</time>
      </trkpt>
      <trkpt lat="47.5209693" lon="2.06067838">
        <ele>157.67</ele>
        <time>2025-11-23T10:16:37Z</time>
      </trkpt>
      <trkpt lat="47.52102097" lon="2.06056861">
        <ele>163.56</ele>
        <time>2025-11-23T10:16:46Z</time>
      </trkpt>
      <trkpt lat="47.52111241" lon="2.06058421">
        <ele>165.09</ele>
        <time>2025-11-23T10:16:55Z</time>
      </trkpt>
      <trkpt lat="47.52120916" lon="2.06059473">
        <ele>169.67</ele>
        <time>2025-11-23T10:17:02Z</time>
      </trkpt>
      <trkpt lat="47.52129644" lon="2.06065066">
        <ele>173.76</ele>
        <time>2025-11-23T10:17:10Z</time>
      </trkpt>
      <trkpt lat="47.52138142" lon="2.06071488">
        <ele>170.56</ele>
        <time>2025-11-23T10:17:20Z</time>
      </trkpt>
      <trkpt lat="47.52147868" lon="2.06073472">
        <ele>170.95</ele>
        <time>2025-11-23T10:17:29Z</time>
      </trkpt>
      <trkpt lat="47.52156785" lon="2.06078645">
        <ele>170.05</ele>
        <time>2025-11-23T10:17:38Z</time>
      </trkpt>
      <trkpt lat="47.52162146" lon="2.06079631">
        <ele>163.76</ele>
        <time>2025-11-23T10:19:39Z</time>
      </trkpt>
      <trkpt lat="47.52159728" lon="2.06076182">
        <ele>163.3</ele>
        <time>2025-11-23T10:21:40Z</time>
      </trkpt>
      <trkpt lat="47.52161079" lon="2.06055092">
        <ele>163.5</ele>
        <time>2025-11-23T10:23:37Z</time>
      </trkpt>
      <trkpt lat="47.52162734" lon="2.06041397">
        <ele>163.58</ele>
        <time>2025-11-23T10:23:45Z</time>
      </trkpt>
      <trkpt lat="47.52165333" lon="2.0602856">
        <ele>162.7</ele>
        <time>2025-11-23T10:23:54Z</time>
      </trkpt>
      <trkpt lat="47.52164112" lon="2.06014791">
        <ele>163.75</ele>
        <time>2025-11-23T10:24:02Z</time>
      </trkpt>
      <trkpt lat="47.52163404" lon="2.06001154">
        <ele>164.6</ele>
        <time>2025-11-23T10:24:10Z</time>
      </trkpt>
      <trkpt lat="47.52163994" lon="2.05987719">
        <ele>166</ele>
        <time>2025-11-23T10:24:18Z</time>
      </trkpt>
      <trkpt lat="47.52165989" lon="2.05973393">
        <ele>165.62</ele>
        <time>2025-11-23T10:24:27Z</time>
      </trkpt>
      <trkpt lat="47.52166831" lon="2.05959525">
        <ele>165.11</ele>
        <time>2025-11-23T10:24:36Z</time>
      </trkpt>
      <trkpt lat="47.52168312" lon="2.05945371">
        <ele>163.41</ele>
        <time>2025-11-23T10:24:45Z</time>
      </trkpt>
      <trkpt lat="47.52171033" lon="2.05931333">
        <ele>163.4</ele>
        <time>2025-11-23T10:24:54Z</time>
      </trkpt>
      <trkpt lat="47.52173211" lon="2.0591773">
        <ele>163.32</ele>
        <time>2025-11-23T10:25:03Z</time>
      </trkpt>
      <trkpt lat="47.52174681" lon="2.05903026">
        <ele>162.6</ele>
        <time>2025-11-23T10:25:12Z</time>
      </trkpt>
      <trkpt lat="47.52173187" lon="2.05889367">
        <ele>163.37</ele>
        <time>2025-11-23T10:25:20Z</time>
      </trkpt>
      <trkpt lat="47.52172065" lon="2.05875375">
        <ele>164.17</ele>
        <time>2025-11-23T10:25:29Z</time>
      </trkpt>
      <trkpt lat="47.52171743" lon="2.05861494">
        <ele>162.8</ele>
        <time>2025-11-23T10:25:37Z</time>
      </trkpt>
      <trkpt lat="47.52170688" lon="2.05846633">
        <ele>164.36</ele>
        <time>2025-11-23T10:25:47Z</time>
      </trkpt>
      <trkpt lat="47.5217026" lon="2.05832463">
        <ele>165.51</ele>
        <time>2025-11-23T10:25:56Z</time>
      </trkpt>
      <trkpt lat="47.52170645" lon="2.05818366">
        <ele>165.06</ele>
        <time>2025-11-23T10:26:04Z</time>
      </trkpt>
      <trkpt lat="47.52171159" lon="2.05803399">
        <ele>164.79</ele>
        <time>2025-11-23T10:26:12Z</time>
      </trkpt>
      <trkpt lat="47.52172066" lon="2.05788758">
        <ele>163.97</ele>
        <time>2025-11-23T10:26:21Z</time>
      </trkpt>
      <trkpt lat="47.52174138" lon="2.0577581">
        <ele>162.82</ele>
        <time>2025-11-23T10:26:29Z</time>
      </trkpt>
      <trkpt lat="47.52174856" lon="2.05761753">
        <ele>161.98</ele>
        <time>2025-11-23T10:26:38Z</time>
      </trkpt>
      <trkpt lat="47.52176882" lon="2.05748559">
        <ele>163.51</ele>
        <time>2025-11-23T10:26:46Z</time>
      </trkpt>
      <trkpt lat="47.52178111" lon="2.05734658">
        <ele>162.02</ele>
        <time>2025-11-23T10:26:54Z</time>
      </trkpt>
      <trkpt lat="47.52178892" lon="2.0572002">
        <ele>162.51</ele>
        <time>2025-11-23T10:27:03Z</time>
      </trkpt>
      <trkpt lat="47.52181852" lon="2.05706964">
        <ele>161.86</ele>
        <time>2025-11-23T10:27:12Z</time>
      </trkpt>
      <trkpt lat="47.52185516" lon="2.05693946">
        <ele>162.61</ele>
        <time>2025-11-23T10:27:21Z</time>
      </trkpt>
      <trkpt lat="47.52189586" lon="2.05681209">
        <ele>163.52</ele>
        <time>2025-11-23T10:27:30Z</time>
      </trkpt>
      <trkpt lat="47.52194299" lon="2.05669454">
        <ele>161.71</ele>
        <time>2025-11-23T10:27:40Z</time>
      </trkpt>
      <trkpt lat="47.52197785" lon="2.05656425">
        <ele>162.79</ele>
        <time>2025-11-23T10:27:49Z</time>
      </trkpt>
      <trkpt lat="47.52200558" lon="2.05643791">
        <ele>162.94</ele>
        <time>2025-11-23T10:27:55Z</time>
      </trkpt>
      <trkpt lat="47.52198787" lon="2.05630313">
        <ele>166</ele>
        <time>2025-11-23T10:28:04Z</time>
      </trkpt>
      <trkpt lat="47.52201719" lon="2.05616805">
        <ele>166.17</ele>
        <time>2025-11-23T10:28:13Z</time>
      </trkpt>
      <trkpt lat="47.52204666" lon="2.05603242">
        <ele>163.73</ele>
        <time>2025-11-23T10:28:21Z</time>
      </trkpt>
      <trkpt lat="47.52209749" lon="2.05591353">
        <ele>163.24</ele>
        <time>2025-11-23T10:28:29Z</time>
      </trkpt>
      <trkpt lat="47.52217652" lon="2.05584967">
        <ele>162.63</ele>
        <time>2025-11-23T10:28:37Z</time>
      </trkpt>
      <trkpt lat="47.52226778" lon="2.05582588">
        <ele>163.06</ele>
        <time>2025-11-23T10:28:44Z</time>
      </trkpt>
      <trkpt lat="47.5223488" lon="2.05575958">
        <ele>165.17</ele>
        <time>2025-11-23T10:28:52Z</time>
      </trkpt>
      <trkpt lat="47.52244458" lon="2.0557199">
        <ele>166.95</ele>
        <time>2025-11-23T10:29:00Z</time>
      </trkpt>
      <trkpt lat="47.52253148" lon="2.05566812">
        <ele>167.82</ele>
        <time>2025-11-23T10:29:08Z</time>
      </trkpt>
      <trkpt lat="47.52261223" lon="2.05560552">
        <ele>167.09</ele>
        <time>2025-11-23T10:29:16Z</time>
      </trkpt>
      <trkpt lat="47.52268959" lon="2.05552135">
        <ele>167.11</ele>
        <time>2025-11-23T10:29:25Z</time>
      </trkpt>
      <trkpt lat="47.52278474" lon="2.0555">
        <ele>169.1</ele>
        <time>2025-11-23T10:29:33Z</time>
      </trkpt>
      <trkpt lat="47.52287602" lon="2.0555005">
        <ele>169.54</ele>
        <time>2025-11-23T10:29:40Z</time>
      </trkpt>
      <trkpt lat="47.52296845" lon="2.0554816">
        <ele>169.91</ele>
        <time>2025-11-23T10:29:47Z</time>
      </trkpt>
      <trkpt lat="47.52306671" lon="2.05549168">
        <ele>172.13</ele>
        <time>2025-11-23T10:29:55Z</time>
      </trkpt>
      <trkpt lat="47.52315904" lon="2.05548477">
        <ele>171.51</ele>
        <time>2025-11-23T10:30:03Z</time>
      </trkpt>
      <trkpt lat="47.5232525" lon="2.05546505">
        <ele>169.66</ele>
        <time>2025-11-23T10:30:11Z</time>
      </trkpt>
      <trkpt lat="47.52335076" lon="2.05546405">
        <ele>168.73</ele>
        <time>2025-11-23T10:30:19Z</time>
      </trkpt>
      <trkpt lat="47.52344757" lon="2.05547063">
        <ele>169.01</ele>
        <time>2025-11-23T10:30:27Z</time>
      </trkpt>
      <trkpt lat="47.52353781" lon="2.05544666">
        <ele>165.74</ele>
        <time>2025-11-23T10:30:35Z</time>
      </trkpt>
      <trkpt lat="47.52363441" lon="2.05541516">
        <ele>164.51</ele>
        <time>2025-11-23T10:30:43Z</time>
      </trkpt>
      <trkpt lat="47.52372529" lon="2.05541452">
        <ele>166.24</ele>
        <time>2025-11-23T10:30:50Z</time>
      </trkpt>
      <trkpt lat="47.52382536" lon="2.05539443">
        <ele>167.47</ele>
        <time>2025-11-23T10:30:59Z</time>
      </trkpt>
      <trkpt lat="47.52392222" lon="2.05541157">
        <ele>164.47</ele>
        <time>2025-11-23T10:31:09Z</time>
      </trkpt>
      <trkpt lat="47.52401392" lon="2.05542105">
        <ele>163.67</ele>
        <time>2025-11-23T10:31:17Z</time>
      </trkpt>
      <trkpt lat="47.5241132" lon="2.05542664">
        <ele>162.51</ele>
        <time>2025-11-23T10:31:26Z</time>
      </trkpt>
      <trkpt lat="47.52420648" lon="2.05542606">
        <ele>162.09</ele>
        <time>2025-11-23T10:31:35Z</time>
      </trkpt>
      <trkpt lat="47.52429855" lon="2.05542558">
        <ele>163.16</ele>
        <time>2025-11-23T10:31:44Z</time>
      </trkpt>
      <trkpt lat="47.52438891" lon="2.0554223">
        <ele>162.23</ele>
        <time>2025-11-23T10:31:52Z</time>
      </trkpt>
      <trkpt lat="47.52448969" lon="2.05540109">
        <ele>161.79</ele>
        <time>2025-11-23T10:32:00Z</time>
      </trkpt>
      <trkpt lat="47.52458816" lon="2.05541615">
        <ele>161.37</ele>
        <time>2025-11-23T10:32:10Z</time>
      </trkpt>
      <trkpt lat="47.52468661" lon="2.0554135">
        <ele>161.38</ele>
        <time>2025-11-23T10:32:19Z</time>
      </trkpt>
      <trkpt lat="47.52479063" lon="2.05540613">
        <ele>162.04</ele>
        <time>2025-11-23T10:32:29Z</time>
      </trkpt>
      <trkpt lat="47.52488159" lon="2.05539251">
        <ele>161.13</ele>
        <time>2025-11-23T10:32:37Z</time>
      </trkpt>
      <trkpt lat="47.52497376" lon="2.05538165">
        <ele>159.92</ele>
        <time>2025-11-23T10:32:45Z</time>
      </trkpt>
      <trkpt lat="47.52507232" lon="2.05536224">
        <ele>159.47</ele>
        <time>2025-11-23T10:32:53Z</time>
      </trkpt>
      <trkpt lat="47.52517172" lon="2.05535878">
        <ele>159.69</ele>
        <time>2025-11-23T10:33:02Z</time>
      </trkpt>
      <trkpt lat="47.52526678" lon="2.05534848">
        <ele>160.44</ele>
        <time>2025-11-23T10:33:10Z</time>
      </trkpt>
      <trkpt lat="47.52535872" lon="2.055346">
        <ele>160.02</ele>
        <time>2025-11-23T10:33:18Z</time>
      </trkpt>
      <trkpt lat="47.52545353" lon="2.05534083">
        <ele>160.11</ele>
        <time>2025-11-23T10:33:26Z</time>
      </trkpt>
      <trkpt lat="47.52555229" lon="2.05534323">
        <ele>161.59</ele>
        <time>2025-11-23T10:33:35Z</time>
      </trkpt>
      <trkpt lat="47.52564356" lon="2.05535329">
        <ele>164.03</ele>
        <time>2025-11-23T10:33:43Z</time>
      </trkpt>
      <trkpt lat="47.52574386" lon="2.05534901">
        <ele>164.27</ele>
        <time>2025-11-23T10:33:52Z</time>
      </trkpt>
      <trkpt lat="47.52583828" lon="2.05535353">
        <ele>162.85</ele>
        <time>2025-11-23T10:34:02Z</time>
      </trkpt>
      <trkpt lat="47.52593648" lon="2.05533644">
        <ele>160.6</ele>
        <time>2025-11-23T10:34:11Z</time>
      </trkpt>
      <trkpt lat="47.52603572" lon="2.05535616">
        <ele>160.45</ele>
        <time>2025-11-23T10:34:20Z</time>
      </trkpt>
      <trkpt lat="47.52612546" lon="2.05536538">
        <ele>161.1</ele>
        <time>2025-11-23T10:34:28Z</time>
      </trkpt>
      <trkpt lat="47.52622273" lon="2.05537494">
        <ele>160.71</ele>
        <time>2025-11-23T10:34:36Z</time>
      </trkpt>
      <trkpt lat="47.5263157" lon="2.05536276">
        <ele>161.42</ele>
        <time>2025-11-23T10:34:44Z</time>
      </trkpt>
      <trkpt lat="47.52641351" lon="2.05539165">
        <ele>163.09</ele>
        <time>2025-11-23T10:34:51Z</time>
      </trkpt>
      <trkpt lat="47.52650849" lon="2.05541066">
        <ele>161.22</ele>
        <time>2025-11-23T10:34:59Z</time>
      </trkpt>
      <trkpt lat="47.52659815" lon="2.05539463">
        <ele>161.71</ele>
        <time>2025-11-23T10:35:07Z</time>
      </trkpt>
      <trkpt lat="47.52668842" lon="2.05541959">
        <ele>164.34</ele>
        <time>2025-11-23T10:35:14Z</time>
      </trkpt>
      <trkpt lat="47.52678644" lon="2.05542314">
        <ele>165.62</ele>
        <time>2025-11-23T10:35:22Z</time>
      </trkpt>
      <trkpt lat="47.52689263" lon="2.05541741">
        <ele>167.94</ele>
        <time>2025-11-23T10:35:31Z</time>
      </trkpt>
      <trkpt lat="47.52698803" lon="2.05543917">
        <ele>167.68</ele>
        <time>2025-11-23T10:35:40Z</time>
      </trkpt>
      <trkpt lat="47.52707361" lon="2.05539387">
        <ele>168.18</ele>
        <time>2025-11-23T10:35:47Z</time>
      </trkpt>
      <trkpt lat="47.52716189" lon="2.05535787">
        <ele>166.6</ele>
        <time>2025-11-23T10:35:54Z</time>
      </trkpt>
      <trkpt lat="47.52725854" lon="2.05532709">
        <ele>168.39</ele>
        <time>2025-11-23T10:36:03Z</time>
      </trkpt>
      <trkpt lat="47.52736026" lon="2.05529526">
        <ele>167.58</ele>
        <time>2025-11-23T10:36:11Z</time>
      </trkpt>
      <trkpt lat="47.52745898" lon="2.05528201">
        <ele>166.34</ele>
        <time>2025-11-23T10:36:18Z</time>
      </trkpt>
      <trkpt lat="47.52755171" lon="2.05524168">
        <ele>167.97</ele>
        <time>2025-11-23T10:36:26Z</time>
      </trkpt>
      <trkpt lat="47.52764453" lon="2.05520845">
        <ele>166.58</ele>
        <time>2025-11-23T10:36:33Z</time>
      </trkpt>
      <trkpt lat="47.52773384" lon="2.05516554">
        <ele>164.43</ele>
        <time>2025-11-23T10:36:40Z</time>
      </trkpt>
      <trkpt lat="47.52782146" lon="2.05510136">
        <ele>162.41</ele>
        <time>2025-11-23T10:36:47Z</time>
      </trkpt>
      <trkpt lat="47.52790895" lon="2.05506521">
        <ele>165.19</ele>
        <time>2025-11-23T10:36:55Z</time>
      </trkpt>
      <trkpt lat="47.52799779" lon="2.05501791">
        <ele>168.49</ele>
        <time>2025-11-23T10:37:35Z</time>
      </trkpt>
      <trkpt lat="47.5280593" lon="2.05490827">
        <ele>170.35</ele>
        <time>2025-11-23T10:37:44Z</time>
      </trkpt>
      <trkpt lat="47.5281348" lon="2.05481092">
        <ele>170.49</ele>
        <time>2025-11-23T10:37:54Z</time>
      </trkpt>
      <trkpt lat="47.52819579" lon="2.05471182">
        <ele>170.22</ele>
        <time>2025-11-23T10:38:03Z</time>
      </trkpt>
      <trkpt lat="47.52821139" lon="2.05457859">
        <ele>163.34</ele>
        <time>2025-11-23T10:38:22Z</time>
      </trkpt>
      <trkpt lat="47.52826107" lon="2.05446514">
        <ele>165.67</ele>
        <time>2025-11-23T10:38:35Z</time>
      </trkpt>
      <trkpt lat="47.52832742" lon="2.05435279">
        <ele>169.4</ele>
        <time>2025-11-23T10:38:45Z</time>
      </trkpt>
      <trkpt lat="47.5283526" lon="2.05420699">
        <ele>167.21</ele>
        <time>2025-11-23T10:39:00Z</time>
      </trkpt>
      <trkpt lat="47.52837397" lon="2.05406375">
        <ele>167.26</ele>
        <time>2025-11-23T10:39:08Z</time>
      </trkpt>
      <trkpt lat="47.52839189" lon="2.05392906">
        <ele>165.66</ele>
        <time>2025-11-23T10:39:16Z</time>
      </trkpt>
      <trkpt lat="47.52842319" lon="2.05379481">
        <ele>172.94</ele>
        <time>2025-11-23T10:39:24Z</time>
      </trkpt>
      <trkpt lat="47.5284461" lon="2.05366541">
        <ele>170.3</ele>
        <time>2025-11-23T10:39:32Z</time>
      </trkpt>
      <trkpt lat="47.52845706" lon="2.05352987">
        <ele>167.07</ele>
        <time>2025-11-23T10:39:40Z</time>
      </trkpt>
      <trkpt lat="47.5284722" lon="2.05338855">
        <ele>157.92</ele>
        <time>2025-11-23T10:39:48Z</time>
      </trkpt>
      <trkpt lat="47.52852492" lon="2.05326655">
        <ele>157.73</ele>
        <time>2025-11-23T10:39:54Z</time>
      </trkpt>
      <trkpt lat="47.52857962" lon="2.05314537">
        <ele>161.29</ele>
        <time>2025-11-23T10:40:00Z</time>
      </trkpt>
      <trkpt lat="47.52862972" lon="2.05302765">
        <ele>162.29</ele>
        <time>2025-11-23T10:40:07Z</time>
      </trkpt>
      <trkpt lat="47.52867396" lon="2.05288979">
        <ele>161.68</ele>
        <time>2025-11-23T10:40:15Z</time>
      </trkpt>
      <trkpt lat="47.5287198" lon="2.05275391">
        <ele>161.89</ele>
        <time>2025-11-23T10:40:23Z</time>
      </trkpt>
      <trkpt lat="47.52875397" lon="2.05263003">
        <ele>161.41</ele>
        <time>2025-11-23T10:40:31Z</time>
      </trkpt>
      <trkpt lat="47.52879868" lon="2.05248877">
        <ele>161.47</ele>
        <time>2025-11-23T10:40:40Z</time>
      </trkpt>
      <trkpt lat="47.52883533" lon="2.05235984">
        <ele>159.74</ele>
        <time>2025-11-23T10:40:48Z</time>
      </trkpt>
      <trkpt lat="47.52889745" lon="2.05225781">
        <ele>161.36</ele>
        <time>2025-11-23T10:40:57Z</time>
      </trkpt>
      <trkpt lat="47.52895915" lon="2.05216055">
        <ele>165.53</ele>
        <time>2025-11-23T10:41:47Z</time>
      </trkpt>
      <trkpt lat="47.528965" lon="2.05201214">
        <ele>163.62</ele>
        <time>2025-11-23T10:41:54Z</time>
      </trkpt>
      <trkpt lat="47.52900212" lon="2.05187757">
        <ele>162.49</ele>
        <time>2025-11-23T10:42:01Z</time>
      </trkpt>
      <trkpt lat="47.52903829" lon="2.05175097">
        <ele>162.13</ele>
        <time>2025-11-23T10:42:08Z</time>
      </trkpt>
      <trkpt lat="47.52908983" lon="2.05162688">
        <ele>162.39</ele>
        <time>2025-11-23T10:42:16Z</time>
      </trkpt>
      <trkpt lat="47.52913001" lon="2.05149678">
        <ele>163.49</ele>
        <time>2025-11-23T10:42:23Z</time>
      </trkpt>
      <trkpt lat="47.52918726" lon="2.0513886">
        <ele>165.76</ele>
        <time>2025-11-23T10:42:29Z</time>
      </trkpt>
      <trkpt lat="47.52923003" lon="2.05126895">
        <ele>165.45</ele>
        <time>2025-11-23T10:42:36Z</time>
      </trkpt>
      <trkpt lat="47.52926916" lon="2.05113098">
        <ele>164.91</ele>
        <time>2025-11-23T10:42:44Z</time>
      </trkpt>
      <trkpt lat="47.52930865" lon="2.05100413">
        <ele>160.56</ele>
        <time>2025-11-23T10:42:51Z</time>
      </trkpt>
      <trkpt lat="47.52935207" lon="2.05087084">
        <ele>162.62</ele>
        <time>2025-11-23T10:42:58Z</time>
      </trkpt>
      <trkpt lat="47.52940027" lon="2.0507584">
        <ele>163.06</ele>
        <time>2025-11-23T10:43:04Z</time>
      </trkpt>
      <trkpt lat="47.52945049" lon="2.050646">
        <ele>165</ele>
        <time>2025-11-23T10:43:10Z</time>
      </trkpt>
      <trkpt lat="47.52950871" lon="2.05052192">
        <ele>165.82</ele>
        <time>2025-11-23T10:43:17Z</time>
      </trkpt>
      <trkpt lat="47.52956692" lon="2.05040439">
        <ele>165.45</ele>
        <time>2025-11-23T10:43:24Z</time>
      </trkpt>
      <trkpt lat="47.52962539" lon="2.05030141">
        <ele>167</ele>
        <time>2025-11-23T10:43:30Z</time>
      </trkpt>
      <trkpt lat="47.52968766" lon="2.0501853">
        <ele>166.62</ele>
        <time>2025-11-23T10:43:37Z</time>
      </trkpt>
      <trkpt lat="47.52974315" lon="2.05007843">
        <ele>165.7</ele>
        <time>2025-11-23T10:43:44Z</time>
      </trkpt>
      <trkpt lat="47.52979324" lon="2.04996677">
        <ele>165.93</ele>
        <time>2025-11-23T10:43:51Z</time>
      </trkpt>
      <trkpt lat="47.52984864" lon="2.04984766">
        <ele>164.88</ele>
        <time>2025-11-23T10:43:58Z</time>
      </trkpt>
      <trkpt lat="47.52991256" lon="2.04973977">
        <ele>166.23</ele>
        <time>2025-11-23T10:44:05Z</time>
      </trkpt>
      <trkpt lat="47.52995223" lon="2.04962013">
        <ele>165.48</ele>
        <time>2025-11-23T10:44:12Z</time>
      </trkpt>
      <trkpt lat="47.5299845" lon="2.04949042">
        <ele>163.83</ele>
        <time>2025-11-23T10:44:19Z</time>
      </trkpt>
      <trkpt lat="47.53002543" lon="2.04936887">
        <ele>165.13</ele>
        <time>2025-11-23T10:44:26Z</time>
      </trkpt>
      <trkpt lat="47.53009015" lon="2.04927108">
        <ele>161.3</ele>
        <time>2025-11-23T10:44:33Z</time>
      </trkpt>
      <trkpt lat="47.53014053" lon="2.04915976">
        <ele>162.05</ele>
        <time>2025-11-23T10:44:40Z</time>
      </trkpt>
      <trkpt lat="47.53018012" lon="2.04903692">
        <ele>161.71</ele>
        <time>2025-11-23T10:44:47Z</time>
      </trkpt>
      <trkpt lat="47.53023338" lon="2.04892503">
        <ele>162.88</ele>
        <time>2025-11-23T10:44:55Z</time>
      </trkpt>
      <trkpt lat="47.53027839" lon="2.04880803">
        <ele>165.07</ele>
        <time>2025-11-23T10:45:02Z</time>
      </trkpt>
      <trkpt lat="47.53033779" lon="2.04868501">
        <ele>165.73</ele>
        <time>2025-11-23T10:45:09Z</time>
      </trkpt>
      <trkpt lat="47.53038839" lon="2.0485576">
        <ele>167.34</ele>
        <time>2025-11-23T10:45:16Z</time>
      </trkpt>
      <trkpt lat="47.53042569" lon="2.04843604">
        <ele>165.52</ele>
        <time>2025-11-23T10:45:23Z</time>
      </trkpt>
      <trkpt lat="47.53047879" lon="2.04832012">
        <ele>165.52</ele>
        <time>2025-11-23T10:45:31Z</time>
      </trkpt>
      <trkpt lat="47.53054167" lon="2.04820581">
        <ele>163.85</ele>
        <time>2025-11-23T10:45:39Z</time>
      </trkpt>
      <trkpt lat="47.53058372" lon="2.04808222">
        <ele>165.39</ele>
        <time>2025-11-23T10:45:47Z</time>
      </trkpt>
      <trkpt lat="47.53064023" lon="2.04797454">
        <ele>164.76</ele>
        <time>2025-11-23T10:45:56Z</time>
      </trkpt>
      <trkpt lat="47.53068326" lon="2.0478416">
        <ele>165.52</ele>
        <time>2025-11-23T10:46:04Z</time>
      </trkpt>
      <trkpt lat="47.53072667" lon="2.04770888">
        <ele>166.36</ele>
        <time>2025-11-23T10:46:13Z</time>
      </trkpt>
      <trkpt lat="47.53078013" lon="2.04759728">
        <ele>166.84</ele>
        <time>2025-11-23T10:46:27Z</time>
      </trkpt>
      <trkpt lat="47.5308211" lon="2.04746611">
        <ele>166.85</ele>
        <time>2025-11-23T10:46:37Z</time>
      </trkpt>
      <trkpt lat="47.53087979" lon="2.04735069">
        <ele>165.52</ele>
        <time>2025-11-23T10:46:47Z</time>
      </trkpt>
      <trkpt lat="47.53092937" lon="2.04721916">
        <ele>165.08</ele>
        <time>2025-11-23T10:46:55Z</time>
      </trkpt>
      <trkpt lat="47.53099214" lon="2.0471051">
        <ele>165.14</ele>
        <time>2025-11-23T10:47:03Z</time>
      </trkpt>
      <trkpt lat="47.53104526" lon="2.0469945">
        <ele>164.62</ele>
        <time>2025-11-23T10:47:10Z</time>
      </trkpt>
      <trkpt lat="47.53109541" lon="2.04687051">
        <ele>165.36</ele>
        <time>2025-11-23T10:47:17Z</time>
      </trkpt>
      <trkpt lat="47.53113937" lon="2.04675228">
        <ele>165.74</ele>
        <time>2025-11-23T10:47:24Z</time>
      </trkpt>
      <trkpt lat="47.53119432" lon="2.04663593">
        <ele>165.62</ele>
        <time>2025-11-23T10:47:31Z</time>
      </trkpt>
      <trkpt lat="47.5312404" lon="2.04650164">
        <ele>166.39</ele>
        <time>2025-11-23T10:47:39Z</time>
      </trkpt>
      <trkpt lat="47.53127866" lon="2.04637493">
        <ele>167.35</ele>
        <time>2025-11-23T10:47:46Z</time>
      </trkpt>
      <trkpt lat="47.53132763" lon="2.04625432">
        <ele>166.78</ele>
        <time>2025-11-23T10:47:54Z</time>
      </trkpt>
      <trkpt lat="47.53136897" lon="2.04612241">
        <ele>165.37</ele>
        <time>2025-11-23T10:48:01Z</time>
      </trkpt>
      <trkpt lat="47.53146622" lon="2.04610018">
        <ele>163.91</ele>
        <time>2025-11-23T10:48:07Z</time>
      </trkpt>
      <trkpt lat="47.53151264" lon="2.04596896">
        <ele>161.98</ele>
        <time>2025-11-23T10:48:15Z</time>
      </trkpt>
      <trkpt lat="47.5315628" lon="2.0458438">
        <ele>163.26</ele>
        <time>2025-11-23T10:48:23Z</time>
      </trkpt>
      <trkpt lat="47.53162648" lon="2.04572736">
        <ele>163.41</ele>
        <time>2025-11-23T10:48:30Z</time>
      </trkpt>
      <trkpt lat="47.5316778" lon="2.04560462">
        <ele>162.28</ele>
        <time>2025-11-23T10:48:37Z</time>
      </trkpt>
      <trkpt lat="47.5317289" lon="2.04548574">
        <ele>163.26</ele>
        <time>2025-11-23T10:48:43Z</time>
      </trkpt>
      <trkpt lat="47.53178727" lon="2.04535955">
        <ele>164.37</ele>
        <time>2025-11-23T10:48:50Z</time>
      </trkpt>
      <trkpt lat="47.53183998" lon="2.04523277">
        <ele>164.44</ele>
        <time>2025-11-23T10:48:57Z</time>
      </trkpt>
      <trkpt lat="47.53189218" lon="2.04511322">
        <ele>164.24</ele>
        <time>2025-11-23T10:49:04Z</time>
      </trkpt>
      <trkpt lat="47.53192507" lon="2.04498907">
        <ele>162.41</ele>
        <time>2025-11-23T10:49:12Z</time>
      </trkpt>
      <trkpt lat="47.53198427" lon="2.04488656">
        <ele>165.37</ele>
        <time>2025-11-23T10:49:23Z</time>
      </trkpt>
      <trkpt lat="47.53203065" lon="2.04477056">
        <ele>165.65</ele>
        <time>2025-11-23T10:49:30Z</time>
      </trkpt>
      <trkpt lat="47.53208326" lon="2.04464756">
        <ele>164.17</ele>
        <time>2025-11-23T10:49:38Z</time>
      </trkpt>
      <trkpt lat="47.53212468" lon="2.04452262">
        <ele>162.75</ele>
        <time>2025-11-23T10:49:45Z</time>
      </trkpt>
      <trkpt lat="47.53215551" lon="2.04439402">
        <ele>171.5</ele>
        <time>2025-11-23T10:49:51Z</time>
      </trkpt>
      <trkpt lat="47.53222144" lon="2.04428026">
        <ele>172.34</ele>
        <time>2025-11-23T10:49:58Z</time>
      </trkpt>
      <trkpt lat="47.53226604" lon="2.04414745">
        <ele>170.14</ele>
        <time>2025-11-23T10:50:06Z</time>
      </trkpt>
      <trkpt lat="47.53233685" lon="2.04404101">
        <ele>166.94</ele>
        <time>2025-11-23T10:50:15Z</time>
      </trkpt>
      <trkpt lat="47.5323861" lon="2.04392135">
        <ele>164.69</ele>
        <time>2025-11-23T10:50:24Z</time>
      </trkpt>
      <trkpt lat="47.53241498" lon="2.0437942">
        <ele>163.82</ele>
        <time>2025-11-23T10:50:32Z</time>
      </trkpt>
      <trkpt lat="47.53246459" lon="2.04368334">
        <ele>165.44</ele>
        <time>2025-11-23T10:50:39Z</time>
      </trkpt>
      <trkpt lat="47.53251917" lon="2.04356471">
        <ele>164.72</ele>
        <time>2025-11-23T10:50:47Z</time>
      </trkpt>
      <trkpt lat="47.53257813" lon="2.04345507">
        <ele>166.43</ele>
        <time>2025-11-23T10:50:56Z</time>
      </trkpt>
      <trkpt lat="47.53263668" lon="2.04334821">
        <ele>163.66</ele>
        <time>2025-11-23T10:51:04Z</time>
      </trkpt>
      <trkpt lat="47.53266939" lon="2.04321942">
        <ele>161.08</ele>
        <time>2025-11-23T10:51:11Z</time>
      </trkpt>
      <trkpt lat="47.53271253" lon="2.04309914">
        <ele>158.74</ele>
        <time>2025-11-23T10:51:18Z</time>
      </trkpt>
      <trkpt lat="47.53366554" lon="2.04113889">
        <ele>156.92</ele>
        <time>2025-11-23T10:53:21Z</time>
      </trkpt>
      <trkpt lat="47.53366983" lon="2.04100526">
        <ele>165.29</ele>
        <time>2025-11-23T10:53:27Z</time>
      </trkpt>
      <trkpt lat="47.53480325" lon="2.03839724">
        <ele>167.75</ele>
        <time>2025-11-23T10:56:22Z</time>
      </trkpt>
      <trkpt lat="47.53484908" lon="2.03811679">
        <ele>162.84</ele>
        <time>2025-11-23T10:56:37Z</time>
      </trkpt>
      <trkpt lat="47.53619132" lon="2.03744438">
        <ele>181.22</ele>
        <time>2025-11-23T10:58:24Z</time>
      </trkpt>
      <trkpt lat="47.53873131" lon="2.03629303">
        <ele>176.54</ele>
        <time>2025-11-23T11:03:36Z</time>
      </trkpt>
    </trkseg>
  </trk>
</gpx>